Time,TemperatureF,DewpointF,PressureIn,WindDirection,WindDirectionDegrees,WindSpeedMPH,WindSpeedGustMPH,Humidity,HourlyPrecipIn,Conditions,Clouds,dailyrainin,SoftwareType,DateUTC
2013-06-03 00:02:00,50.4,50.4,31.01,North,350,0.0,0.0,100,0.00,,,0.00,VWS V13.01,2013-06-03 05:02:00,
2013-06-03 00:03:00,50.5,50.5,31.01,North,350,0.0,0.0,100,0.00,,,0.00,VWS V13.01,2013-06-03 05:03:00,
2013-06-03 00:07:00,50.4,50.4,31.01,North,350,0.0,0.0,100,0.00,,,0.00,VWS V13.01,2013-06-03 05:07:00,
2013-06-03 00:08:00,50.4,50.4,31.01,North,350,0.0,0.0,100,0.00,,,0.00,VWS V13.01,2013-06-03 05:08:00,
2013-06-03 00:12:00,50.5,50.5,31.01,North,350,0.0,0.0,100,0.00,,,0.00,VWS V13.01,2013-06-03 05:12:00,
2013-06-03 00:13:00,50.5,50.5,31.01,North,350,0.0,0.0,100,0.00,,,0.00,VWS V13.01,2013-06-03 05:13:00,
2013-06-03 00:17:00,50.5,50.5,31.01,North,350,0.0,0.0,100,0.00,,,0.00,VWS V13.01,2013-06-03 05:17:00,
2013-06-03 00:18:00,50.5,50.5,31.01,North,350,0.0,0.0,100,0.00,,,0.00,VWS V13.01,2013-06-03 05:18:00,
2013-06-03 00:22:00,50.4,50.4,31.01,North,350,0.0,0.0,100,0.00,,,0.00,VWS V13.01,2013-06-03 05:22:00,
2013-06-03 00:23:00,50.4,50.4,31.01,North,350,0.0,0.0,100,0.00,,,0.00,VWS V13.01,2013-06-03 05:23:00,
2013-06-03 00:27:00,50.0,50.0,31.01,North,350,0.0,0.0,100,0.00,,,0.00,VWS V13.01,2013-06-03 05:27:00,
2013-06-03 00:28:00,50.0,50.0,31.01,North,350,0.0,0.0,100,0.00,,,0.00,VWS V13.01,2013-06-03 05:28:00,
2013-06-03 00:29:00,50.0,50.0,31.01,North,350,0.0,0.0,100,0.00,,,0.00,VWS V13.01,2013-06-03 05:29:00,
2013-06-03 00:32:00,49.8,49.8,31.01,North,350,0.0,0.0,100,0.00,,,0.00,VWS V13.01,2013-06-03 05:32:00,
2013-06-03 00:33:00,49.8,49.8,31.01,North,350,0.0,0.0,100,0.00,,,0.00,VWS V13.01,2013-06-03 05:33:00,
2013-06-03 00:34:00,49.8,49.8,31.01,North,350,0.0,0.0,100,0.00,,,0.00,VWS V13.01,2013-06-03 05:34:00,
2013-06-03 00:37:00,49.6,49.6,31.01,North,350,0.0,0.0,100,0.00,,,0.00,VWS V13.01,2013-06-03 05:37:00,
2013-06-03 00:38:00,49.6,49.6,31.01,North,350,0.0,0.0,100,0.00,,,0.00,VWS V13.01,2013-06-03 05:38:00,
2013-06-03 00:39:00,49.5,49.5,31.01,North,350,0.0,0.0,100,0.00,,,0.00,VWS V13.01,2013-06-03 05:39:00,
2013-06-03 00:42:00,49.5,49.5,31.01,North,350,0.0,0.0,100,0.00,,,0.00,VWS V13.01,2013-06-03 05:42:00,
2013-06-03 00:43:00,49.5,49.5,31.01,North,350,0.0,0.0,100,0.00,,,0.00,VWS V13.01,2013-06-03 05:43:00,
2013-06-03 00:44:00,49.3,49.3,31.01,North,350,0.0,0.0,100,0.00,,,0.00,VWS V13.01,2013-06-03 05:44:00,
2013-06-03 00:47:00,49.3,49.3,31.01,North,350,0.0,0.0,100,0.00,,,0.00,VWS V13.01,2013-06-03 05:47:00,
2013-06-03 00:48:00,49.3,49.3,31.01,North,350,0.0,0.0,100,0.00,,,0.00,VWS V13.01,2013-06-03 05:48:00,
2013-06-03 00:49:00,49.3,49.3,31.01,North,350,0.0,0.0,100,0.00,,,0.00,VWS V13.01,2013-06-03 05:49:00,
2013-06-03 00:52:00,49.1,49.1,31.01,North,350,0.0,0.0,100,0.00,,,0.00,VWS V13.01,2013-06-03 05:52:00,
2013-06-03 00:53:00,48.9,48.9,31.01,North,350,0.0,0.0,100,0.00,,,0.00,VWS V13.01,2013-06-03 05:53:00,
2013-06-03 00:54:00,48.9,48.9,31.01,North,350,0.0,0.0,100,0.00,,,0.00,VWS V13.01,2013-06-03 05:54:00,
2013-06-03 00:57:00,48.7,48.7,31.01,North,350,0.0,0.0,100,0.00,,,0.00,VWS V13.01,2013-06-03 05:57:00,
2013-06-03 00:58:00,48.7,48.7,31.01,North,350,0.0,0.0,100,0.00,,,0.00,VWS V13.01,2013-06-03 05:58:00,
2013-06-03 00:59:00,48.7,48.7,31.01,North,350,0.0,0.0,100,0.00,,,0.00,VWS V13.01,2013-06-03 05:59:00,
2013-06-03 01:03:00,48.7,48.7,31.01,North,350,0.0,0.0,100,0.00,,,0.00,VWS V13.01,2013-06-03 06:03:00,
2013-06-03 01:04:00,48.6,48.6,31.01,North,350,0.0,0.0,100,0.00,,,0.00,VWS V13.01,2013-06-03 06:04:00,
2013-06-03 01:08:00,48.6,48.6,31.01,North,350,0.0,0.0,100,0.00,,,0.00,VWS V13.01,2013-06-03 06:08:00,
2013-06-03 01:09:00,48.6,48.6,31.01,North,350,0.0,0.0,100,0.00,,,0.00,VWS V13.01,2013-06-03 06:09:00,
2013-06-03 01:13:00,48.6,48.6,31.01,North,350,0.0,0.0,100,0.00,,,0.00,VWS V13.01,2013-06-03 06:13:00,
2013-06-03 01:14:00,48.6,48.6,31.01,North,350,0.0,0.0,100,0.00,,,0.00,VWS V13.01,2013-06-03 06:14:00,
2013-06-03 01:18:00,48.7,48.7,31.01,North,350,0.0,0.0,100,0.00,,,0.00,VWS V13.01,2013-06-03 06:18:00,
2013-06-03 01:19:00,48.6,48.6,31.01,North,350,0.0,0.0,100,0.00,,,0.00,VWS V13.01,2013-06-03 06:19:00,
2013-06-03 01:23:00,48.7,48.7,31.01,North,350,0.0,0.0,100,0.00,,,0.00,VWS V13.01,2013-06-03 06:23:00,
2013-06-03 01:24:00,48.7,48.7,31.01,North,350,0.0,0.0,100,0.00,,,0.00,VWS V13.01,2013-06-03 06:24:00,
2013-06-03 01:28:00,48.7,48.7,31.01,North,350,0.0,0.0,100,0.00,,,0.00,VWS V13.01,2013-06-03 06:28:00,
2013-06-03 01:29:00,48.7,48.7,31.01,North,350,0.0,0.0,100,0.00,,,0.00,VWS V13.01,2013-06-03 06:29:00,
2013-06-03 01:33:00,48.6,48.6,31.01,North,350,0.0,0.0,100,0.00,,,0.00,VWS V13.01,2013-06-03 06:33:00,
2013-06-03 01:34:00,48.6,48.6,31.01,North,350,0.0,0.0,100,0.00,,,0.00,VWS V13.01,2013-06-03 06:34:00,
2013-06-03 01:38:00,48.4,48.4,31.01,North,350,0.0,0.0,100,0.00,,,0.00,VWS V13.01,2013-06-03 06:38:00,
2013-06-03 01:39:00,48.4,48.4,31.01,North,350,0.0,0.0,100,0.00,,,0.00,VWS V13.01,2013-06-03 06:39:00,
2013-06-03 01:43:00,48.2,48.2,31.01,North,350,0.0,0.0,100,0.00,,,0.00,VWS V13.01,2013-06-03 06:43:00,
2013-06-03 01:44:00,48.2,48.2,31.01,North,350,0.0,0.0,100,0.00,,,0.00,VWS V13.01,2013-06-03 06:44:00,
2013-06-03 01:48:00,48.2,48.2,31.01,North,350,0.0,0.0,100,0.00,,,0.00,VWS V13.01,2013-06-03 06:48:00,
2013-06-03 01:49:00,48.0,48.0,31.01,North,350,0.0,0.0,100,0.00,,,0.00,VWS V13.01,2013-06-03 06:49:00,
2013-06-03 01:53:00,48.0,48.0,31.01,North,350,0.0,0.0,100,0.00,,,0.00,VWS V13.01,2013-06-03 06:53:00,
2013-06-03 01:54:00,48.0,48.0,31.01,North,350,0.0,0.0,100,0.00,,,0.00,VWS V13.01,2013-06-03 06:54:00,
2013-06-03 01:58:00,48.0,48.0,31.01,North,350,0.0,0.0,100,0.00,,,0.00,VWS V13.01,2013-06-03 06:58:00,
2013-06-03 01:59:00,48.2,48.2,31.01,North,350,0.0,0.0,100,0.00,,,0.00,VWS V13.01,2013-06-03 06:59:00,
2013-06-03 02:03:00,48.2,48.2,31.01,North,350,0.0,0.0,100,0.00,,,0.00,VWS V13.01,2013-06-03 07:03:00,
2013-06-03 02:04:00,48.4,48.4,31.01,North,350,0.0,0.0,100,0.00,,,0.00,VWS V13.01,2013-06-03 07:04:00,
2013-06-03 02:08:00,48.7,48.7,31.01,North,350,0.0,0.0,100,0.00,,,0.00,VWS V13.01,2013-06-03 07:08:00,
2013-06-03 02:09:00,48.7,48.7,31.01,North,350,0.0,0.0,100,0.00,,,0.00,VWS V13.01,2013-06-03 07:09:00,
2013-06-03 02:10:00,48.7,48.7,31.01,North,350,0.0,0.0,100,0.00,,,0.00,VWS V13.01,2013-06-03 07:10:00,
2013-06-03 02:13:00,49.1,49.1,31.01,North,350,0.0,0.0,100,0.00,,,0.00,VWS V13.01,2013-06-03 07:13:00,
2013-06-03 02:14:00,49.3,49.3,31.01,North,350,0.0,0.0,100,0.00,,,0.00,VWS V13.01,2013-06-03 07:14:00,
2013-06-03 02:15:00,49.3,49.3,31.01,North,350,0.0,0.0,100,0.00,,,0.00,VWS V13.01,2013-06-03 07:15:00,
2013-06-03 02:18:00,49.6,49.6,31.01,North,350,0.0,0.0,100,0.00,,,0.00,VWS V13.01,2013-06-03 07:18:00,
2013-06-03 02:19:00,49.6,49.6,31.01,North,350,0.0,0.0,100,0.00,,,0.00,VWS V13.01,2013-06-03 07:19:00,
2013-06-03 02:20:00,49.6,49.6,31.01,North,350,0.0,0.0,100,0.00,,,0.00,VWS V13.01,2013-06-03 07:20:00,
2013-06-03 02:23:00,49.6,49.6,31.01,North,350,0.0,0.0,100,0.00,,,0.00,VWS V13.01,2013-06-03 07:23:00,
2013-06-03 02:24:00,49.5,49.5,31.01,North,350,0.0,0.0,100,0.00,,,0.00,VWS V13.01,2013-06-03 07:24:00,
2013-06-03 02:25:00,49.5,49.5,31.01,North,350,0.0,0.0,100,0.00,,,0.00,VWS V13.01,2013-06-03 07:25:00,
2013-06-03 02:28:00,49.3,49.3,31.01,North,350,0.0,0.0,100,0.00,,,0.00,VWS V13.01,2013-06-03 07:28:00,
2013-06-03 02:29:00,49.1,49.1,31.01,North,350,0.0,0.0,100,0.00,,,0.00,VWS V13.01,2013-06-03 07:29:00,
2013-06-03 02:30:00,49.1,49.1,31.01,North,350,0.0,0.0,100,0.00,,,0.00,VWS V13.01,2013-06-03 07:30:00,
2013-06-03 02:33:00,48.9,48.9,31.01,North,350,0.0,0.0,100,0.00,,,0.00,VWS V13.01,2013-06-03 07:33:00,
2013-06-03 02:34:00,48.9,48.9,31.01,North,350,0.0,0.0,100,0.00,,,0.00,VWS V13.01,2013-06-03 07:34:00,
2013-06-03 02:35:00,48.9,48.9,31.01,North,350,0.0,0.0,100,0.00,,,0.00,VWS V13.01,2013-06-03 07:35:00,
2013-06-03 02:39:00,48.7,48.7,31.01,North,350,0.0,0.0,100,0.00,,,0.00,VWS V13.01,2013-06-03 07:39:00,
2013-06-03 02:40:00,48.9,48.9,31.01,North,350,0.0,0.0,100,0.00,,,0.00,VWS V13.01,2013-06-03 07:40:00,
2013-06-03 02:44:00,49.3,49.3,31.01,North,350,0.0,0.0,100,0.00,,,0.00,VWS V13.01,2013-06-03 07:44:00,
2013-06-03 02:45:00,49.5,49.5,31.01,North,350,0.0,0.0,100,0.00,,,0.00,VWS V13.01,2013-06-03 07:45:00,
2013-06-03 02:49:00,50.0,50.0,31.01,North,350,0.0,0.0,100,0.00,,,0.00,VWS V13.01,2013-06-03 07:49:00,
2013-06-03 02:50:00,50.2,50.2,31.01,North,350,0.0,0.0,100,0.00,,,0.00,VWS V13.01,2013-06-03 07:50:00,
2013-06-03 02:54:00,50.4,50.4,31.01,North,350,0.0,0.0,100,0.00,,,0.00,VWS V13.01,2013-06-03 07:54:00,
2013-06-03 02:55:00,50.4,50.4,31.01,North,350,0.0,0.0,100,0.00,,,0.00,VWS V13.01,2013-06-03 07:55:00,
2013-06-03 02:59:00,50.5,50.5,31.01,North,350,0.0,0.0,100,0.00,,,0.00,VWS V13.01,2013-06-03 07:59:00,
2013-06-03 03:00:00,50.5,50.5,31.01,North,350,0.0,0.0,100,0.00,,,0.00,VWS V13.01,2013-06-03 08:00:00,
2013-06-03 03:04:00,50.4,50.4,31.01,North,350,0.0,0.0,100,0.00,,,0.00,VWS V13.01,2013-06-03 08:04:00,
2013-06-03 03:05:00,50.4,50.4,31.01,North,350,0.0,0.0,100,0.00,,,0.00,VWS V13.01,2013-06-03 08:05:00,
2013-06-03 03:09:00,50.4,50.4,31.01,North,350,0.0,0.0,100,0.00,,,0.00,VWS V13.01,2013-06-03 08:09:00,
2013-06-03 03:10:00,50.4,50.4,31.01,North,350,0.0,0.0,100,0.00,,,0.00,VWS V13.01,2013-06-03 08:10:00,
2013-06-03 03:14:00,50.4,50.4,31.01,North,350,0.0,0.0,100,0.00,,,0.00,VWS V13.01,2013-06-03 08:14:00,
2013-06-03 03:15:00,50.4,50.4,31.01,North,350,0.0,0.0,100,0.00,,,0.00,VWS V13.01,2013-06-03 08:15:00,
2013-06-03 03:19:00,50.2,50.2,31.01,North,350,0.0,0.0,100,0.00,,,0.00,VWS V13.01,2013-06-03 08:19:00,
2013-06-03 03:20:00,50.2,50.2,31.01,North,350,0.0,0.0,100,0.00,,,0.00,VWS V13.01,2013-06-03 08:20:00,
2013-06-03 03:24:00,50.2,50.2,31.01,North,350,0.0,0.0,100,0.00,,,0.00,VWS V13.01,2013-06-03 08:24:00,
2013-06-03 03:25:00,50.2,50.2,31.01,North,350,0.0,0.0,100,0.00,,,0.00,VWS V13.01,2013-06-03 08:25:00,
2013-06-03 03:29:00,50.2,50.2,31.01,North,350,0.0,0.0,100,0.00,,,0.00,VWS V13.01,2013-06-03 08:29:00,
2013-06-03 03:30:00,50.2,50.2,31.01,North,350,0.0,0.0,100,0.00,,,0.00,VWS V13.01,2013-06-03 08:30:00,
2013-06-03 03:31:00,50.2,50.2,31.01,North,350,0.0,0.0,100,0.00,,,0.00,VWS V13.01,2013-06-03 08:31:00,
2013-06-03 03:34:00,50.0,50.0,31.01,North,350,0.0,0.0,100,0.00,,,0.00,VWS V13.01,2013-06-03 08:34:00,
2013-06-03 03:35:00,49.8,49.8,31.01,North,350,0.0,0.0,100,0.00,,,0.00,VWS V13.01,2013-06-03 08:35:00,
2013-06-03 03:39:00,49.8,49.8,31.01,North,350,0.0,0.0,100,0.00,,,0.00,VWS V13.01,2013-06-03 08:39:00,
2013-06-03 03:40:00,49.6,49.6,31.01,North,350,0.0,0.0,100,0.00,,,0.00,VWS V13.01,2013-06-03 08:40:00,
2013-06-03 03:41:00,49.6,49.6,31.01,North,350,0.0,0.0,100,0.00,,,0.00,VWS V13.01,2013-06-03 08:41:00,
2013-06-03 03:44:00,49.5,49.5,31.01,North,350,0.0,0.0,100,0.00,,,0.00,VWS V13.01,2013-06-03 08:44:00,
2013-06-03 03:46:00,49.3,49.3,31.01,North,350,0.0,0.0,100,0.00,,,0.00,VWS V13.01,2013-06-03 08:46:00,
2013-06-03 03:47:00,49.3,49.3,31.01,North,350,0.0,0.0,100,0.00,,,0.00,VWS V13.01,2013-06-03 08:47:00,
2013-06-03 03:49:00,49.1,49.1,31.01,North,350,0.0,0.0,100,0.00,,,0.00,VWS V13.01,2013-06-03 08:49:00,
2013-06-03 03:51:00,48.9,48.9,31.01,North,350,0.0,0.0,100,0.00,,,0.00,VWS V13.01,2013-06-03 08:51:00,
2013-06-03 03:52:00,48.7,48.7,31.01,North,350,0.0,0.0,100,0.00,,,0.00,VWS V13.01,2013-06-03 08:52:00,
2013-06-03 03:54:00,48.7,48.7,31.01,North,350,0.0,0.0,100,0.00,,,0.00,VWS V13.01,2013-06-03 08:54:00,
2013-06-03 03:56:00,48.6,48.6,31.01,North,350,0.0,0.0,100,0.00,,,0.00,VWS V13.01,2013-06-03 08:56:00,
2013-06-03 03:57:00,48.6,48.6,31.01,North,350,0.0,0.0,100,0.00,,,0.00,VWS V13.01,2013-06-03 08:57:00,
2013-06-03 03:59:00,48.2,48.2,31.01,North,350,0.0,0.0,100,0.00,,,0.00,VWS V13.01,2013-06-03 08:59:00,
2013-06-03 04:01:00,48.2,48.2,31.01,North,350,0.0,0.0,100,0.00,,,0.00,VWS V13.01,2013-06-03 09:01:00,
2013-06-03 04:02:00,48.0,48.0,31.01,North,350,0.0,0.0,100,0.00,,,0.00,VWS V13.01,2013-06-03 09:02:00,
2013-06-03 04:04:00,47.8,47.8,31.01,North,350,0.0,0.0,100,0.00,,,0.00,VWS V13.01,2013-06-03 09:04:00,
2013-06-03 04:06:00,47.7,47.7,31.01,North,350,0.0,0.0,100,0.00,,,0.00,VWS V13.01,2013-06-03 09:06:00,
2013-06-03 04:07:00,47.7,47.7,31.01,North,350,0.0,0.0,100,0.00,,,0.00,VWS V13.01,2013-06-03 09:07:00,
2013-06-03 04:09:00,47.5,47.5,31.01,North,350,0.0,0.0,100,0.00,,,0.00,VWS V13.01,2013-06-03 09:09:00,
2013-06-03 04:11:00,47.5,47.5,31.01,North,350,0.0,0.0,100,0.00,,,0.00,VWS V13.01,2013-06-03 09:11:00,
2013-06-03 04:12:00,47.3,47.3,31.01,North,350,0.0,0.0,100,0.00,,,0.00,VWS V13.01,2013-06-03 09:12:00,
2013-06-03 04:14:00,47.3,47.3,31.01,North,350,0.0,0.0,100,0.00,,,0.00,VWS V13.01,2013-06-03 09:14:00,
2013-06-03 04:16:00,47.3,47.3,31.01,North,350,0.0,0.0,100,0.00,,,0.00,VWS V13.01,2013-06-03 09:16:00,
2013-06-03 04:17:00,47.3,47.3,31.01,North,350,0.0,0.0,100,0.00,,,0.00,VWS V13.01,2013-06-03 09:17:00,
2013-06-03 04:19:00,47.1,47.1,31.01,North,350,0.0,0.0,100,0.00,,,0.00,VWS V13.01,2013-06-03 09:19:00,
2013-06-03 04:21:00,47.3,47.3,31.01,North,350,0.0,0.0,100,0.00,,,0.00,VWS V13.01,2013-06-03 09:21:00,
2013-06-03 04:22:00,47.3,47.3,31.01,North,350,0.0,0.0,100,0.00,,,0.00,VWS V13.01,2013-06-03 09:22:00,
2013-06-03 04:24:00,47.3,47.3,31.01,North,350,0.0,0.0,100,0.00,,,0.00,VWS V13.01,2013-06-03 09:24:00,
2013-06-03 04:27:00,47.5,47.5,31.01,North,350,0.0,0.0,100,0.00,,,0.00,VWS V13.01,2013-06-03 09:27:00,
2013-06-03 04:28:00,47.5,47.5,31.01,North,350,0.0,0.0,100,0.00,,,0.00,VWS V13.01,2013-06-03 09:28:00,
2013-06-03 04:29:00,47.7,47.7,31.01,North,350,0.0,0.0,100,0.00,,,0.00,VWS V13.01,2013-06-03 09:29:00,
2013-06-03 04:30:00,47.7,47.7,31.01,North,350,0.0,0.0,100,0.00,,,0.00,VWS V13.01,2013-06-03 09:30:00,
2013-06-03 04:32:00,48.2,48.2,31.01,North,350,0.0,0.0,100,0.00,,,0.00,VWS V13.01,2013-06-03 09:32:00,
2013-06-03 04:33:00,48.4,48.4,31.01,North,350,0.0,0.0,100,0.00,,,0.00,VWS V13.01,2013-06-03 09:33:00,
2013-06-03 04:34:00,48.7,48.7,31.01,North,350,0.0,0.0,100,0.00,,,0.00,VWS V13.01,2013-06-03 09:34:00,
2013-06-03 04:35:00,48.9,48.9,31.01,North,350,0.0,0.0,100,0.00,,,0.00,VWS V13.01,2013-06-03 09:35:00,
2013-06-03 04:37:00,49.1,49.1,31.01,North,350,0.0,0.0,100,0.00,,,0.00,VWS V13.01,2013-06-03 09:37:00,
2013-06-03 04:38:00,49.3,49.3,31.01,North,350,0.0,0.0,100,0.00,,,0.00,VWS V13.01,2013-06-03 09:38:00,
2013-06-03 04:39:00,49.3,49.3,31.01,North,350,0.0,0.0,100,0.00,,,0.00,VWS V13.01,2013-06-03 09:39:00,
2013-06-03 04:40:00,49.3,49.3,31.01,North,350,0.0,0.0,100,0.00,,,0.00,VWS V13.01,2013-06-03 09:40:00,
2013-06-03 04:42:00,49.3,49.3,31.01,North,350,0.0,0.0,100,0.00,,,0.00,VWS V13.01,2013-06-03 09:42:00,
2013-06-03 04:43:00,49.3,49.3,31.01,North,350,0.0,0.0,100,0.00,,,0.00,VWS V13.01,2013-06-03 09:43:00,
2013-06-03 04:44:00,49.3,49.3,31.01,North,350,0.0,0.0,100,0.00,,,0.00,VWS V13.01,2013-06-03 09:44:00,
2013-06-03 04:45:00,49.3,49.3,31.01,North,350,0.0,0.0,100,0.00,,,0.00,VWS V13.01,2013-06-03 09:45:00,
2013-06-03 04:47:00,49.1,49.1,31.01,North,350,0.0,0.0,100,0.00,,,0.00,VWS V13.01,2013-06-03 09:47:00,
2013-06-03 04:48:00,49.1,49.1,31.01,North,350,0.0,0.0,100,0.00,,,0.00,VWS V13.01,2013-06-03 09:48:00,
2013-06-03 04:49:00,48.9,48.9,31.01,North,350,0.0,0.0,100,0.00,,,0.00,VWS V13.01,2013-06-03 09:49:00,
2013-06-03 04:50:00,48.9,48.9,31.01,North,350,0.0,0.0,100,0.00,,,0.00,VWS V13.01,2013-06-03 09:50:00,
2013-06-03 04:52:00,48.7,48.7,31.01,North,350,0.0,0.0,100,0.00,,,0.00,VWS V13.01,2013-06-03 09:52:00,
2013-06-03 04:53:00,48.6,48.6,31.01,North,350,0.0,0.0,100,0.00,,,0.00,VWS V13.01,2013-06-03 09:53:00,
2013-06-03 04:54:00,48.4,48.4,31.01,North,350,0.0,0.0,100,0.00,,,0.00,VWS V13.01,2013-06-03 09:54:00,
2013-06-03 04:55:00,48.4,48.4,31.01,North,350,0.0,0.0,100,0.00,,,0.00,VWS V13.01,2013-06-03 09:55:00,
2013-06-03 04:57:00,48.0,48.0,31.01,North,350,0.0,0.0,100,0.00,,,0.00,VWS V13.01,2013-06-03 09:57:00,
2013-06-03 04:58:00,48.0,48.0,31.01,North,350,0.0,0.0,100,0.00,,,0.00,VWS V13.01,2013-06-03 09:58:00,
2013-06-03 04:59:00,47.8,47.8,31.01,North,350,0.0,0.0,100,0.00,,,0.00,VWS V13.01,2013-06-03 09:59:00,
2013-06-03 05:00:00,47.8,47.8,31.01,North,350,0.0,0.0,100,0.00,,,0.00,VWS V13.01,2013-06-03 10:00:00,
2013-06-03 05:02:00,47.7,47.7,31.01,North,350,0.0,0.0,100,0.00,,,0.00,VWS V13.01,2013-06-03 10:02:00,
2013-06-03 05:03:00,47.5,47.5,31.01,North,350,0.0,0.0,100,0.00,,,0.00,VWS V13.01,2013-06-03 10:03:00,
2013-06-03 05:04:00,47.5,47.5,31.01,North,350,0.0,0.0,100,0.00,,,0.00,VWS V13.01,2013-06-03 10:04:00,
2013-06-03 05:05:00,47.5,47.5,31.01,North,350,0.0,0.0,100,0.00,,,0.00,VWS V13.01,2013-06-03 10:05:00,
2013-06-03 05:07:00,47.3,47.3,31.01,North,350,0.0,0.0,100,0.00,,,0.00,VWS V13.01,2013-06-03 10:07:00,
2013-06-03 05:08:00,47.3,47.3,31.01,North,350,0.0,0.0,100,0.00,,,0.00,VWS V13.01,2013-06-03 10:08:00,
2013-06-03 05:10:00,47.3,47.3,31.01,North,350,0.0,0.0,100,0.00,,,0.00,VWS V13.01,2013-06-03 10:10:00,
2013-06-03 05:12:00,47.3,47.3,31.01,North,350,0.0,0.0,100,0.00,,,0.00,VWS V13.01,2013-06-03 10:12:00,
2013-06-03 05:13:00,47.3,47.3,31.01,North,350,0.0,0.0,100,0.00,,,0.00,VWS V13.01,2013-06-03 10:13:00,
2013-06-03 05:15:00,47.1,47.1,31.01,North,350,0.0,0.0,100,0.00,,,0.00,VWS V13.01,2013-06-03 10:15:00,
2013-06-03 05:18:00,46.8,46.8,31.01,North,350,0.0,0.0,100,0.00,,,0.00,VWS V13.01,2013-06-03 10:18:00,
2013-06-03 05:20:00,46.8,46.8,31.01,North,350,0.0,0.0,100,0.00,,,0.00,VWS V13.01,2013-06-03 10:20:00,
2013-06-03 05:23:00,46.6,46.6,31.01,North,350,0.0,0.0,100,0.00,,,0.00,VWS V13.01,2013-06-03 10:23:00,
2013-06-03 05:25:00,46.6,46.6,31.01,North,350,0.0,0.0,100,0.00,,,0.00,VWS V13.01,2013-06-03 10:25:00,
2013-06-03 05:28:00,46.4,46.4,31.01,North,350,0.0,0.0,100,0.00,,,0.00,VWS V13.01,2013-06-03 10:28:00,
2013-06-03 05:30:00,46.6,46.6,31.01,North,350,0.0,0.0,100,0.00,,,0.00,VWS V13.01,2013-06-03 10:30:00,
2013-06-03 05:33:00,46.6,46.6,31.01,North,350,0.0,0.0,100,0.00,,,0.00,VWS V13.01,2013-06-03 10:33:00,
2013-06-03 05:35:00,46.8,46.8,31.01,North,350,0.0,0.0,100,0.00,,,0.00,VWS V13.01,2013-06-03 10:35:00,
2013-06-03 05:38:00,46.6,46.6,31.01,North,350,0.0,0.0,100,0.00,,,0.00,VWS V13.01,2013-06-03 10:38:00,
2013-06-03 05:40:00,46.6,46.6,31.01,North,350,0.0,0.0,100,0.00,,,0.00,VWS V13.01,2013-06-03 10:40:00,
2013-06-03 05:43:00,46.8,46.8,31.01,North,350,0.0,0.0,100,0.00,,,0.00,VWS V13.01,2013-06-03 10:43:00,
2013-06-03 05:44:00,46.8,46.8,31.01,North,350,0.0,0.0,100,0.00,,,0.00,VWS V13.01,2013-06-03 10:44:00,
2013-06-03 05:45:00,46.6,46.6,31.01,North,350,0.0,0.0,100,0.00,,,0.00,VWS V13.01,2013-06-03 10:45:00,
2013-06-03 05:48:00,46.6,46.6,31.01,North,350,0.0,0.0,100,0.00,,,0.00,VWS V13.01,2013-06-03 10:48:00,
2013-06-03 05:49:00,46.6,46.6,31.01,North,350,0.0,0.0,100,0.00,,,0.00,VWS V13.01,2013-06-03 10:49:00,
2013-06-03 05:50:00,46.4,46.4,31.01,North,350,0.0,0.0,100,0.00,,,0.00,VWS V13.01,2013-06-03 10:50:00,
2013-06-03 05:53:00,46.4,46.4,31.01,North,350,0.0,0.0,100,0.00,,,0.00,VWS V13.01,2013-06-03 10:53:00,
2013-06-03 05:54:00,46.4,46.4,31.01,North,350,0.0,0.0,100,0.00,,,0.00,VWS V13.01,2013-06-03 10:54:00,
2013-06-03 05:55:00,46.4,46.4,31.01,North,350,0.0,0.0,100,0.00,,,0.00,VWS V13.01,2013-06-03 10:55:00,
2013-06-03 05:56:00,46.4,46.4,31.01,North,350,0.0,0.0,100,0.00,,,0.00,VWS V13.01,2013-06-03 10:56:00,
2013-06-03 05:58:00,46.6,46.6,31.01,North,350,0.0,0.0,100,0.00,,,0.00,VWS V13.01,2013-06-03 10:58:00,
2013-06-03 05:59:00,46.6,46.6,31.01,North,350,0.0,0.0,100,0.00,,,0.00,VWS V13.01,2013-06-03 10:59:00,
2013-06-03 06:00:00,46.6,46.6,31.01,North,350,0.0,0.0,100,0.00,,,0.00,VWS V13.01,2013-06-03 11:00:00,
2013-06-03 06:01:00,46.6,46.6,31.01,North,350,0.0,0.0,100,0.00,,,0.00,VWS V13.01,2013-06-03 11:01:00,
2013-06-03 06:03:00,46.6,46.6,31.01,North,350,0.0,0.0,100,0.00,,,0.00,VWS V13.01,2013-06-03 11:03:00,
2013-06-03 06:04:00,46.6,46.6,31.01,North,350,0.0,0.0,100,0.00,,,0.00,VWS V13.01,2013-06-03 11:04:00,
2013-06-03 06:05:00,46.6,46.6,31.01,North,350,0.0,0.0,100,0.00,,,0.00,VWS V13.01,2013-06-03 11:05:00,
2013-06-03 06:06:00,46.8,46.8,31.01,North,350,0.0,0.0,100,0.00,,,0.00,VWS V13.01,2013-06-03 11:06:00,
2013-06-03 06:08:00,46.8,46.8,31.01,North,350,0.0,0.0,100,0.00,,,0.00,VWS V13.01,2013-06-03 11:08:00,
2013-06-03 06:09:00,46.8,46.8,31.01,North,350,0.0,0.0,100,0.00,,,0.00,VWS V13.01,2013-06-03 11:09:00,
2013-06-03 06:10:00,46.8,46.8,31.01,North,350,0.0,0.0,100,0.00,,,0.00,VWS V13.01,2013-06-03 11:10:00,
2013-06-03 06:11:00,46.8,46.8,31.01,North,350,0.0,0.0,100,0.00,,,0.00,VWS V13.01,2013-06-03 11:11:00,
2013-06-03 06:13:00,46.8,46.8,31.01,North,350,0.0,0.0,100,0.00,,,0.00,VWS V13.01,2013-06-03 11:13:00,
2013-06-03 06:14:00,46.8,46.8,31.01,North,350,0.0,0.0,100,0.00,,,0.00,VWS V13.01,2013-06-03 11:14:00,
2013-06-03 06:15:00,46.9,46.9,31.01,North,350,0.0,0.0,100,0.00,,,0.00,VWS V13.01,2013-06-03 11:15:00,
2013-06-03 06:16:00,46.9,46.9,31.01,North,350,0.0,0.0,100,0.00,,,0.00,VWS V13.01,2013-06-03 11:16:00,
2013-06-03 06:18:00,46.9,46.9,31.01,North,350,0.0,0.0,100,0.00,,,0.00,VWS V13.01,2013-06-03 11:18:00,
2013-06-03 06:19:00,46.9,46.9,31.01,North,350,0.0,0.0,100,0.00,,,0.00,VWS V13.01,2013-06-03 11:19:00,
2013-06-03 06:20:00,47.1,47.1,31.01,North,350,0.0,0.0,100,0.00,,,0.00,VWS V13.01,2013-06-03 11:20:00,
2013-06-03 06:21:00,47.1,47.1,31.01,North,350,0.0,0.0,100,0.00,,,0.00,VWS V13.01,2013-06-03 11:21:00,
2013-06-03 06:23:00,47.5,47.5,31.01,North,350,0.0,0.0,100,0.00,,,0.00,VWS V13.01,2013-06-03 11:23:00,
2013-06-03 06:24:00,47.8,47.8,31.01,North,350,0.0,0.0,100,0.00,,,0.00,VWS V13.01,2013-06-03 11:24:00,
2013-06-03 06:25:00,48.2,48.2,31.01,North,350,0.0,0.0,100,0.00,,,0.00,VWS V13.01,2013-06-03 11:25:00,
2013-06-03 06:27:00,48.7,48.7,31.01,North,350,0.0,0.0,100,0.00,,,0.00,VWS V13.01,2013-06-03 11:27:00,
2013-06-03 06:28:00,49.5,49.5,31.01,North,350,0.0,0.0,100,0.00,,,0.00,VWS V13.01,2013-06-03 11:28:00,
2013-06-03 06:29:00,49.5,49.5,31.01,North,350,0.0,0.0,100,0.00,,,0.00,VWS V13.01,2013-06-03 11:29:00,
2013-06-03 06:30:00,50.4,50.4,31.01,North,350,0.0,0.0,100,0.00,,,0.00,VWS V13.01,2013-06-03 11:30:00,
2013-06-03 06:32:00,50.7,50.7,31.01,North,350,0.0,0.0,100,0.00,,,0.00,VWS V13.01,2013-06-03 11:32:00,
2013-06-03 06:33:00,51.3,51.3,31.01,North,350,0.0,0.0,100,0.00,,,0.00,VWS V13.01,2013-06-03 11:33:00,
2013-06-03 06:34:00,51.4,51.4,31.01,North,350,0.0,0.0,100,0.00,,,0.00,VWS V13.01,2013-06-03 11:34:00,
2013-06-03 06:36:00,51.4,51.4,31.01,North,350,0.0,0.0,100,0.00,,,0.00,VWS V13.01,2013-06-03 11:36:00,
2013-06-03 06:37:00,51.3,51.3,31.01,North,350,0.0,0.0,100,0.00,,,0.00,VWS V13.01,2013-06-03 11:37:00,
2013-06-03 06:38:00,51.1,51.1,31.01,North,350,0.0,0.0,100,0.00,,,0.00,VWS V13.01,2013-06-03 11:38:00,
2013-06-03 06:39:00,51.1,51.1,31.01,North,350,0.0,0.0,100,0.00,,,0.00,VWS V13.01,2013-06-03 11:39:00,
2013-06-03 06:41:00,51.6,51.6,31.01,North,350,0.0,0.0,100,0.00,,,0.00,VWS V13.01,2013-06-03 11:41:00,
2013-06-03 06:42:00,52.3,52.3,31.01,North,350,0.0,0.0,100,0.00,,,0.00,VWS V13.01,2013-06-03 11:42:00,
2013-06-03 06:43:00,53.1,53.1,31.01,North,350,0.0,0.0,100,0.00,,,0.00,VWS V13.01,2013-06-03 11:43:00,
2013-06-03 06:44:00,53.4,53.4,31.01,North,350,0.0,0.0,100,0.00,,,0.00,VWS V13.01,2013-06-03 11:44:00,
2013-06-03 06:46:00,54.3,54.3,31.01,North,350,0.0,0.0,100,0.00,,,0.00,VWS V13.01,2013-06-03 11:46:00,
2013-06-03 06:47:00,54.9,54.9,31.01,North,350,0.0,0.0,100,0.00,,,0.00,VWS V13.01,2013-06-03 11:47:00,
2013-06-03 06:49:00,55.4,55.4,31.01,North,350,0.0,0.0,100,0.00,,,0.00,VWS V13.01,2013-06-03 11:49:00,
2013-06-03 06:51:00,56.1,56.1,31.01,North,350,0.0,0.0,100,0.00,,,0.00,VWS V13.01,2013-06-03 11:51:00,
2013-06-03 06:52:00,56.7,56.7,31.01,North,350,0.0,0.0,100,0.00,,,0.00,VWS V13.01,2013-06-03 11:52:00,
2013-06-03 06:54:00,57.0,57.0,31.01,North,350,0.0,0.0,100,0.00,,,0.00,VWS V13.01,2013-06-03 11:54:00,
2013-06-03 06:56:00,57.6,57.6,31.01,North,350,0.0,0.0,100,0.00,,,0.00,VWS V13.01,2013-06-03 11:56:00,
2013-06-03 06:58:00,57.7,57.7,31.01,North,350,0.0,0.0,100,0.00,,,0.00,VWS V13.01,2013-06-03 11:58:00,
2013-06-03 06:59:00,57.7,57.7,31.01,North,350,0.0,0.0,100,0.00,,,0.00,VWS V13.01,2013-06-03 11:59:00,
2013-06-03 07:01:00,57.7,55.1,31.01,North,350,0.0,0.0,91,0.00,,,0.00,VWS V13.01,2013-06-03 12:01:00,
2013-06-03 07:03:00,57.6,51.1,31.01,North,350,0.0,0.0,79,0.00,,,0.00,VWS V13.01,2013-06-03 12:03:00,
2013-06-03 07:04:00,57.4,50.9,31.01,North,350,0.0,0.0,79,0.00,,,0.00,VWS V13.01,2013-06-03 12:04:00,
2013-06-03 07:06:00,57.4,50.9,31.01,North,350,0.0,0.0,79,0.00,,,0.00,VWS V13.01,2013-06-03 12:06:00,
2013-06-03 07:08:00,57.9,51.5,31.01,North,350,0.0,0.0,79,0.00,,,0.00,VWS V13.01,2013-06-03 12:08:00,
2013-06-03 07:09:00,57.9,51.5,31.01,North,350,0.0,0.0,79,0.00,,,0.00,VWS V13.01,2013-06-03 12:09:00,
2013-06-03 07:11:00,58.1,51.6,31.01,North,350,0.0,0.0,79,0.00,,,0.00,VWS V13.01,2013-06-03 12:11:00,
2013-06-03 07:13:00,58.3,51.8,31.01,North,350,0.0,0.0,79,0.00,,,0.00,VWS V13.01,2013-06-03 12:13:00,
2013-06-03 07:14:00,58.5,52.0,31.01,North,350,0.0,0.0,79,0.00,,,0.00,VWS V13.01,2013-06-03 12:14:00,
2013-06-03 07:15:00,58.5,52.0,31.01,North,350,0.0,0.0,79,0.00,,,0.00,VWS V13.01,2013-06-03 12:15:00,
2013-06-03 07:16:00,58.6,52.2,31.01,North,350,0.0,0.0,79,0.00,,,0.00,VWS V13.01,2013-06-03 12:16:00,
2013-06-03 07:18:00,59.0,52.5,31.01,North,350,0.0,0.0,79,0.00,,,0.00,VWS V13.01,2013-06-03 12:18:00,
2013-06-03 07:19:00,59.0,52.5,31.01,North,350,0.0,0.0,79,0.00,,,0.00,VWS V13.01,2013-06-03 12:19:00,
2013-06-03 07:20:00,59.2,52.7,31.01,North,350,0.0,0.0,79,0.00,,,0.00,VWS V13.01,2013-06-03 12:20:00,
2013-06-03 07:21:00,59.2,45.8,31.01,North,350,0.0,0.0,61,0.00,,,0.00,VWS V13.01,2013-06-03 12:21:00,
2013-06-03 07:23:00,59.5,53.0,31.01,North,350,0.0,0.0,79,0.00,,,0.00,VWS V13.01,2013-06-03 12:23:00,
2013-06-03 07:24:00,59.9,53.4,31.01,North,350,0.0,0.0,79,0.00,,,0.00,VWS V13.01,2013-06-03 12:24:00,
2013-06-03 07:25:00,60.1,53.6,31.01,North,353,0.0,0.0,79,0.00,,,0.00,VWS V13.01,2013-06-03 12:25:00,
2013-06-03 07:26:00,60.1,46.6,31.01,ENE,67,0.0,0.0,61,0.00,,,0.00,VWS V13.01,2013-06-03 12:26:00,
2013-06-03 07:28:00,60.4,46.9,31.01,ENE,70,0.0,0.0,61,0.00,,,0.00,VWS V13.01,2013-06-03 12:28:00,
2013-06-03 07:29:00,60.4,46.9,31.01,ENE,70,0.0,0.0,61,0.00,,,0.00,VWS V13.01,2013-06-03 12:29:00,
2013-06-03 07:30:00,60.1,46.6,31.01,ENE,78,0.0,0.0,61,0.00,,,0.00,VWS V13.01,2013-06-03 12:30:00,
2013-06-03 07:32:00,60.6,47.1,31.01,ENE,73,0.0,0.0,61,0.00,,,0.00,VWS V13.01,2013-06-03 12:32:00,
2013-06-03 07:33:00,61.0,47.5,31.01,ENE,73,0.0,0.0,61,0.00,,,0.00,VWS V13.01,2013-06-03 12:33:00,
2013-06-03 07:34:00,61.2,47.6,31.01,ENE,73,0.0,0.0,61,0.00,,,0.00,VWS V13.01,2013-06-03 12:34:00,
2013-06-03 07:35:00,61.5,48.0,31.01,ENE,73,0.0,0.0,61,0.00,,,0.00,VWS V13.01,2013-06-03 12:35:00,
2013-06-03 07:37:00,61.7,48.1,31.01,East,79,3.6,3.6,61,0.00,,,0.00,VWS V13.01,2013-06-03 12:37:00,
2013-06-03 07:38:00,61.3,47.8,31.01,ENE,74,0.0,0.0,61,0.00,,,0.00,VWS V13.01,2013-06-03 12:38:00,
2013-06-03 07:39:00,61.9,48.3,31.01,ENE,74,0.0,0.0,61,0.00,,,0.00,VWS V13.01,2013-06-03 12:39:00,
2013-06-03 07:40:00,62.1,48.5,31.01,ENE,57,0.0,0.0,61,0.00,,,0.00,VWS V13.01,2013-06-03 12:40:00,
2013-06-03 07:42:00,62.1,48.5,31.01,ENE,58,0.0,0.0,61,0.00,,,0.00,VWS V13.01,2013-06-03 12:42:00,
2013-06-03 07:43:00,62.2,48.6,31.01,NE,51,0.0,0.0,61,0.00,,,0.00,VWS V13.01,2013-06-03 12:43:00,
2013-06-03 07:44:00,62.2,48.6,31.01,ENE,70,0.0,0.0,61,0.00,,,0.00,VWS V13.01,2013-06-03 12:44:00,
2013-06-03 07:45:00,62.2,48.6,31.01,ENE,70,0.0,0.0,61,0.00,,,0.00,VWS V13.01,2013-06-03 12:45:00,
2013-06-03 07:47:00,62.6,46.2,31.01,ENE,69,0.0,0.0,55,0.00,,,0.00,VWS V13.01,2013-06-03 12:47:00,
2013-06-03 07:48:00,63.0,46.6,31.01,ENE,69,0.0,0.0,55,0.00,,,0.00,VWS V13.01,2013-06-03 12:48:00,
2013-06-03 07:49:00,63.0,46.6,31.01,ENE,69,0.0,0.0,55,0.00,,,0.00,VWS V13.01,2013-06-03 12:49:00,
2013-06-03 07:50:00,63.0,46.6,31.01,ENE,69,0.0,0.0,55,0.00,,,0.00,VWS V13.01,2013-06-03 12:50:00,
2013-06-03 07:52:00,63.1,46.7,31.01,ENE,68,0.0,0.0,55,0.00,,,0.00,VWS V13.01,2013-06-03 12:52:00,
2013-06-03 07:53:00,63.1,46.7,31.01,East,84,0.0,0.0,55,0.00,,,0.00,VWS V13.01,2013-06-03 12:53:00,
2013-06-03 07:54:00,63.3,46.9,31.01,East,84,0.0,0.0,55,0.00,,,0.00,VWS V13.01,2013-06-03 12:54:00,
2013-06-03 07:55:00,63.5,47.1,31.01,ENE,71,4.0,4.0,55,0.00,,,0.00,VWS V13.01,2013-06-03 12:55:00,
2013-06-03 07:57:00,63.3,46.9,31.01,ENE,61,2.7,2.7,55,0.00,,,0.00,VWS V13.01,2013-06-03 12:57:00,
2013-06-03 07:58:00,63.9,47.4,31.01,East,80,0.0,0.0,55,0.00,,,0.00,VWS V13.01,2013-06-03 12:58:00,
2013-06-03 07:59:00,63.7,47.2,31.01,East,82,0.0,0.0,55,0.00,,,0.00,VWS V13.01,2013-06-03 12:59:00,
2013-06-03 08:00:00,63.9,47.4,31.01,ENE,65,0.0,0.0,55,0.00,,,0.00,VWS V13.01,2013-06-03 13:00:00,
2013-06-03 08:02:00,64.0,47.6,31.01,East,86,0.0,0.0,55,0.00,,,0.00,VWS V13.01,2013-06-03 13:02:00,
2013-06-03 08:03:00,63.9,47.4,31.01,ENE,69,2.7,2.7,55,0.00,,,0.00,VWS V13.01,2013-06-03 13:03:00,
2013-06-03 08:04:00,63.9,47.4,31.01,ENE,76,0.0,0.0,55,0.00,,,0.00,VWS V13.01,2013-06-03 13:04:00,
2013-06-03 08:05:00,64.2,47.7,31.01,East,85,0.0,0.0,55,0.00,,,0.00,VWS V13.01,2013-06-03 13:05:00,
2013-06-03 08:07:00,65.3,48.7,31.01,East,85,0.0,0.0,55,0.00,,,0.00,VWS V13.01,2013-06-03 13:07:00,
2013-06-03 08:08:00,66.0,49.4,31.01,ENE,65,0.0,0.0,55,0.00,,,0.00,VWS V13.01,2013-06-03 13:08:00,
2013-06-03 08:09:00,65.7,49.1,31.01,East,90,0.0,0.0,55,0.00,,,0.00,VWS V13.01,2013-06-03 13:09:00,
2013-06-03 08:10:00,65.8,49.2,31.01,East,96,0.0,0.0,55,0.00,,,0.00,VWS V13.01,2013-06-03 13:10:00,
2013-06-03 08:12:00,66.6,46.8,31.01,ENE,77,0.0,0.0,49,0.00,,,0.00,VWS V13.01,2013-06-03 13:12:00,
2013-06-03 08:13:00,66.7,47.0,31.01,South,181,0.0,0.0,49,0.00,,,0.00,VWS V13.01,2013-06-03 13:13:00,
2013-06-03 08:14:00,67.3,47.5,31.01,South,181,0.0,0.0,49,0.00,,,0.00,VWS V13.01,2013-06-03 13:14:00,
2013-06-03 08:15:00,67.6,47.8,31.01,ENE,71,0.0,0.0,49,0.00,,,0.00,VWS V13.01,2013-06-03 13:15:00,
2013-06-03 08:17:00,66.7,47.0,31.01,East,85,0.0,0.0,49,0.00,,,0.00,VWS V13.01,2013-06-03 13:17:00,
2013-06-03 08:18:00,66.7,47.0,31.01,ENE,71,0.0,0.0,49,0.00,,,0.00,VWS V13.01,2013-06-03 13:18:00,
2013-06-03 08:19:00,66.7,47.0,31.01,East,81,0.0,0.0,49,0.00,,,0.00,VWS V13.01,2013-06-03 13:19:00,
2013-06-03 08:20:00,66.7,47.0,31.01,East,98,0.0,0.0,49,0.00,,,0.00,VWS V13.01,2013-06-03 13:20:00,
2013-06-03 08:22:00,66.4,46.7,31.01,ENE,69,0.0,0.0,49,0.00,,,0.00,VWS V13.01,2013-06-03 13:22:00,
2013-06-03 08:23:00,66.4,46.7,31.01,ENE,70,0.0,0.0,49,0.00,,,0.00,VWS V13.01,2013-06-03 13:23:00,
2013-06-03 08:24:00,66.7,47.0,31.01,ENE,74,0.0,0.0,49,0.00,,,0.00,VWS V13.01,2013-06-03 13:24:00,
2013-06-03 08:25:00,66.9,47.2,31.01,ENE,74,0.0,0.0,49,0.00,,,0.00,VWS V13.01,2013-06-03 13:25:00,
2013-06-03 08:26:00,66.9,47.2,31.01,East,85,0.0,0.0,49,0.00,,,0.00,VWS V13.01,2013-06-03 13:26:00,
2013-06-03 08:27:00,66.6,46.8,31.01,ENE,59,0.0,0.0,49,0.00,,,0.00,VWS V13.01,2013-06-03 13:27:00,
2013-06-03 08:28:00,67.1,47.3,31.01,ENE,59,0.0,0.0,49,0.00,,,0.00,VWS V13.01,2013-06-03 13:28:00,
2013-06-03 08:29:00,67.3,47.5,31.01,ENE,59,0.0,0.0,49,0.00,,,0.00,VWS V13.01,2013-06-03 13:29:00,
2013-06-03 08:30:00,67.8,48.0,31.01,ENE,59,0.0,0.0,49,0.00,,,0.00,VWS V13.01,2013-06-03 13:30:00,
2013-06-03 08:31:00,68.0,48.2,31.01,East,97,0.0,0.0,49,0.00,,,0.00,VWS V13.01,2013-06-03 13:31:00,
2013-06-03 08:32:00,68.2,48.3,31.01,ENE,78,0.0,0.0,49,0.00,,,0.00,VWS V13.01,2013-06-03 13:32:00,
2013-06-03 08:34:00,68.9,49.0,31.01,SE,133,0.0,0.0,49,0.00,,,0.00,VWS V13.01,2013-06-03 13:34:00,
2013-06-03 08:35:00,69.6,49.6,31.01,SE,131,0.0,0.0,49,0.00,,,0.00,VWS V13.01,2013-06-03 13:35:00,
2013-06-03 08:36:00,70.2,50.1,31.01,South,184,3.1,3.1,49,0.00,,,0.00,VWS V13.01,2013-06-03 13:36:00,
2013-06-03 08:37:00,70.0,50.0,31.01,South,185,0.0,0.0,49,0.00,,,0.00,VWS V13.01,2013-06-03 13:37:00,
2013-06-03 08:39:00,70.3,50.3,31.01,South,187,3.6,3.6,49,0.00,,,0.00,VWS V13.01,2013-06-03 13:39:00,
2013-06-03 08:40:00,70.2,50.1,31.01,South,180,3.1,3.1,49,0.00,,,0.00,VWS V13.01,2013-06-03 13:40:00,
2013-06-03 08:42:00,70.7,50.6,31.01,East,85,3.6,3.6,49,0.00,,,0.00,VWS V13.01,2013-06-03 13:42:00,
2013-06-03 08:44:00,69.6,49.6,31.01,East,100,4.5,4.5,49,0.00,,,0.00,VWS V13.01,2013-06-03 13:44:00,
2013-06-03 08:45:00,68.5,48.6,31.01,ENE,75,2.7,2.7,49,0.00,,,0.00,VWS V13.01,2013-06-03 13:45:00,
2013-06-03 08:47:00,68.7,48.8,31.01,SSW,196,0.0,0.0,49,0.00,,,0.00,VWS V13.01,2013-06-03 13:47:00,
2013-06-03 08:49:00,70.3,50.3,31.01,East,83,0.0,0.0,49,0.00,,,0.00,VWS V13.01,2013-06-03 13:49:00,
2013-06-03 08:50:00,70.7,50.6,31.01,East,87,0.0,0.0,49,0.00,,,0.00,VWS V13.01,2013-06-03 13:50:00,
2013-06-03 08:52:00,71.6,47.9,31.01,South,191,0.0,0.0,43,0.00,,,0.00,VWS V13.01,2013-06-03 13:52:00,
2013-06-03 08:54:00,72.3,48.6,31.01,East,97,0.0,0.0,43,0.00,,,0.00,VWS V13.01,2013-06-03 13:54:00,
2013-06-03 08:55:00,72.5,48.8,31.01,South,183,0.0,0.0,43,0.00,,,0.00,VWS V13.01,2013-06-03 13:55:00,
2013-06-03 08:57:00,72.5,48.8,31.01,East,87,0.0,0.0,43,0.00,,,0.00,VWS V13.01,2013-06-03 13:57:00,
2013-06-03 08:58:00,72.0,48.3,31.01,SSW,198,3.1,3.1,43,0.00,,,0.00,VWS V13.01,2013-06-03 13:58:00,
2013-06-03 08:59:00,72.0,48.3,31.01,South,186,0.0,0.0,43,0.00,,,0.00,VWS V13.01,2013-06-03 13:59:00,
2013-06-03 09:00:00,72.5,48.8,31.01,South,171,0.0,0.0,43,0.00,,,0.00,VWS V13.01,2013-06-03 14:00:00,
2013-06-03 09:02:00,73.2,49.4,31.01,East,84,0.0,0.0,43,0.00,,,0.00,VWS V13.01,2013-06-03 14:02:00,
2013-06-03 09:03:00,73.2,49.4,31.01,ESE,107,0.0,0.0,43,0.00,,,0.00,VWS V13.01,2013-06-03 14:03:00,
2013-06-03 09:04:00,72.7,48.9,31.01,South,175,0.0,0.0,43,0.00,,,0.00,VWS V13.01,2013-06-03 14:04:00,
2013-06-03 09:05:00,72.9,49.1,31.01,South,176,0.0,0.0,43,0.00,,,0.00,VWS V13.01,2013-06-03 14:05:00,
2013-06-03 09:07:00,72.7,48.9,31.01,ESE,104,0.0,0.0,43,0.00,,,0.00,VWS V13.01,2013-06-03 14:07:00,
2013-06-03 09:08:00,72.7,48.9,31.01,South,190,4.9,4.9,43,0.00,,,0.00,VWS V13.01,2013-06-03 14:08:00,
2013-06-03 09:09:00,72.3,48.6,31.01,East,89,2.7,2.7,43,0.00,,,0.00,VWS V13.01,2013-06-03 14:09:00,
2013-06-03 09:10:00,71.6,47.9,31.01,South,190,3.6,3.6,43,0.00,,,0.00,VWS V13.01,2013-06-03 14:10:00,
2013-06-03 09:12:00,69.8,49.8,31.01,East,90,3.1,3.1,49,0.00,,,0.00,VWS V13.01,2013-06-03 14:12:00,
2013-06-03 09:13:00,69.8,49.8,31.01,East,90,0.0,0.0,49,0.00,,,0.00,VWS V13.01,2013-06-03 14:13:00,
2013-06-03 09:14:00,70.7,50.6,31.01,SSE,155,5.4,5.4,49,0.00,,,0.00,VWS V13.01,2013-06-03 14:14:00,
2013-06-03 09:15:00,71.2,51.1,31.01,SSE,153,3.6,3.6,49,0.00,,,0.00,VWS V13.01,2013-06-03 14:15:00,
2013-06-03 09:16:00,71.4,51.3,31.01,South,182,3.1,3.1,49,0.00,,,0.00,VWS V13.01,2013-06-03 14:16:00,
2013-06-03 09:17:00,68.4,48.5,31.01,South,180,6.3,6.3,49,0.00,,,0.00,VWS V13.01,2013-06-03 14:17:00,
2013-06-03 09:18:00,68.0,48.2,31.01,South,190,5.4,5.4,49,0.00,,,0.00,VWS V13.01,2013-06-03 14:18:00,
2013-06-03 09:19:00,69.6,49.6,31.01,SSW,194,5.4,5.4,49,0.00,,,0.00,VWS V13.01,2013-06-03 14:19:00,
2013-06-03 09:20:00,70.3,50.3,31.01,SSW,202,3.1,3.1,49,0.00,,,0.00,VWS V13.01,2013-06-03 14:20:00,
2013-06-03 09:21:00,70.3,50.3,31.01,South,172,5.8,5.8,49,0.00,,,0.00,VWS V13.01,2013-06-03 14:21:00,
2013-06-03 09:22:00,71.1,51.0,31.01,South,184,3.6,3.6,49,0.00,,,0.00,VWS V13.01,2013-06-03 14:22:00,
2013-06-03 09:23:00,71.2,51.1,31.01,ENE,65,0.0,0.0,49,0.00,,,0.00,VWS V13.01,2013-06-03 14:23:00,
2013-06-03 09:24:00,71.6,47.9,31.01,ENE,72,0.0,0.0,43,0.00,,,0.00,VWS V13.01,2013-06-03 14:24:00,
2013-06-03 09:25:00,72.1,48.4,31.01,East,90,0.0,0.0,43,0.00,,,0.00,VWS V13.01,2013-06-03 14:25:00,
2013-06-03 09:26:00,72.1,48.4,31.01,East,96,0.0,0.0,43,0.00,,,0.00,VWS V13.01,2013-06-03 14:26:00,
2013-06-03 09:28:00,73.2,49.4,31.01,SSE,151,2.7,2.7,43,0.00,,,0.00,VWS V13.01,2013-06-03 14:28:00,
2013-06-03 09:29:00,70.9,50.8,31.01,SSW,201,5.8,5.8,49,0.00,,,0.00,VWS V13.01,2013-06-03 14:29:00,
2013-06-03 09:30:00,71.8,48.1,31.01,South,183,3.1,3.1,43,0.00,,,0.00,VWS V13.01,2013-06-03 14:30:00,
2013-06-03 09:31:00,72.3,48.6,31.01,South,173,3.6,3.6,43,0.00,,,0.00,VWS V13.01,2013-06-03 14:31:00,
2013-06-03 09:33:00,73.4,49.6,31.01,SSW,200,2.7,2.7,43,0.00,,,0.00,VWS V13.01,2013-06-03 14:33:00,
2013-06-03 09:34:00,73.9,50.1,31.01,ENE,77,2.2,2.2,43,0.00,,,0.00,VWS V13.01,2013-06-03 14:34:00,
2013-06-03 09:35:00,73.6,49.7,31.01,SE,128,0.0,0.0,43,0.00,,,0.00,VWS V13.01,2013-06-03 14:35:00,
2013-06-03 09:36:00,73.8,49.9,31.01,SSE,156,0.0,0.0,43,0.00,,,0.00,VWS V13.01,2013-06-03 14:36:00,
2013-06-03 09:38:00,74.5,50.5,31.01,ESE,113,0.0,0.0,43,0.00,,,0.00,VWS V13.01,2013-06-03 14:38:00,
2013-06-03 09:39:00,75.6,47.5,31.01,SSE,165,3.6,3.6,37,0.00,,,0.00,VWS V13.01,2013-06-03 14:39:00,
2013-06-03 09:41:00,75.9,47.8,31.01,SSE,152,0.0,0.0,37,0.00,,,0.00,VWS V13.01,2013-06-03 14:41:00,
2013-06-03 09:43:00,75.7,47.7,31.01,South,182,0.0,0.0,37,0.00,,,0.00,VWS V13.01,2013-06-03 14:43:00,
2013-06-03 09:45:00,76.3,48.1,31.01,East,94,0.0,0.0,37,0.00,,,0.00,VWS V13.01,2013-06-03 14:45:00,
2013-06-03 09:46:00,76.3,48.1,31.01,SSE,153,2.2,2.2,37,0.00,,,0.00,VWS V13.01,2013-06-03 14:46:00,
2013-06-03 09:48:00,75.7,47.7,31.01,East,82,0.0,0.0,37,0.00,,,0.00,VWS V13.01,2013-06-03 14:48:00,
2013-06-03 09:50:00,75.2,47.2,31.01,East,95,0.0,0.0,37,0.00,,,0.00,VWS V13.01,2013-06-03 14:50:00,
2013-06-03 09:51:00,75.4,47.3,31.01,ESE,112,2.2,2.2,37,0.00,,,0.00,VWS V13.01,2013-06-03 14:51:00,
2013-06-03 09:53:00,75.9,47.8,31.01,SSW,200,0.0,0.0,37,0.00,,,0.00,VWS V13.01,2013-06-03 14:53:00,
2013-06-03 09:55:00,76.5,48.3,31.01,SSW,194,3.6,3.6,37,0.00,,,0.00,VWS V13.01,2013-06-03 14:55:00,
2013-06-03 09:56:00,76.5,48.3,31.01,SSE,154,3.1,3.1,37,0.00,,,0.00,VWS V13.01,2013-06-03 14:56:00,
2013-06-03 09:58:00,72.0,48.3,31.01,South,190,3.6,3.6,43,0.00,,,0.00,VWS V13.01,2013-06-03 14:58:00,
2013-06-03 10:00:00,70.2,50.1,31.01,South,182,0.0,0.0,49,0.00,,,0.00,VWS V13.01,2013-06-03 15:00:00,
2013-06-03 10:01:00,71.4,51.3,31.01,ESE,112,0.0,0.0,49,0.00,,,0.00,VWS V13.01,2013-06-03 15:01:00,
2013-06-03 10:02:00,72.5,48.8,31.01,South,189,3.1,3.1,43,0.00,,,0.00,VWS V13.01,2013-06-03 15:02:00,
2013-06-03 10:03:00,73.2,49.4,31.01,South,181,3.1,3.1,43,0.00,,,0.00,VWS V13.01,2013-06-03 15:03:00,
2013-06-03 10:05:00,75.2,47.2,31.01,South,175,0.0,0.0,37,0.00,,,0.00,VWS V13.01,2013-06-03 15:05:00,
2013-06-03 10:07:00,75.4,47.3,31.01,ESE,107,2.7,2.7,37,0.00,,,0.00,VWS V13.01,2013-06-03 15:07:00,
2013-06-03 10:08:00,74.5,50.5,31.01,ENE,77,0.0,0.0,43,0.00,,,0.00,VWS V13.01,2013-06-03 15:08:00,
2013-06-03 10:10:00,73.2,49.4,31.01,South,191,3.6,3.6,43,0.00,,,0.00,VWS V13.01,2013-06-03 15:10:00,
2013-06-03 10:12:00,75.4,47.3,31.01,ENE,59,4.0,4.0,37,0.00,,,0.00,VWS V13.01,2013-06-03 15:12:00,
2013-06-03 10:13:00,76.5,48.3,31.01,ENE,72,0.0,0.0,37,0.00,,,0.00,VWS V13.01,2013-06-03 15:13:00,
2013-06-03 10:15:00,76.3,48.1,31.01,NE,45,0.0,0.0,37,0.00,,,0.00,VWS V13.01,2013-06-03 15:15:00,
2013-06-03 10:17:00,75.2,47.2,31.01,East,80,3.1,3.1,37,0.00,,,0.00,VWS V13.01,2013-06-03 15:17:00,
2013-06-03 10:18:00,75.9,47.8,31.01,East,96,0.0,0.0,37,0.00,,,0.00,VWS V13.01,2013-06-03 15:18:00,
2013-06-03 10:20:00,76.3,48.1,31.01,ENE,67,3.1,3.1,37,0.00,,,0.00,VWS V13.01,2013-06-03 15:20:00,
2013-06-03 10:22:00,73.9,50.1,31.01,ENE,59,0.0,0.0,43,0.00,,,0.00,VWS V13.01,2013-06-03 15:22:00,
2013-06-03 10:23:00,73.2,49.4,31.01,NE,47,3.1,3.1,43,0.00,,,0.00,VWS V13.01,2013-06-03 15:23:00,
2013-06-03 10:25:00,74.8,50.9,31.01,East,81,2.7,2.7,43,0.00,,,0.00,VWS V13.01,2013-06-03 15:25:00,
2013-06-03 10:27:00,76.1,48.0,31.01,East,98,2.7,2.7,37,0.00,,,0.00,VWS V13.01,2013-06-03 15:27:00,
2013-06-03 10:28:00,74.8,50.9,31.01,ENE,78,3.6,3.6,43,0.00,,,0.00,VWS V13.01,2013-06-03 15:28:00,
2013-06-03 10:30:00,76.1,48.0,31.01,ENE,59,4.0,4.0,37,0.00,,,0.00,VWS V13.01,2013-06-03 15:30:00,
2013-06-03 10:32:00,76.8,48.6,31.01,ENE,75,0.0,0.0,37,0.00,,,0.00,VWS V13.01,2013-06-03 15:32:00,
2013-06-03 10:33:00,76.1,48.0,31.01,ENE,75,3.6,3.6,37,0.00,,,0.00,VWS V13.01,2013-06-03 15:33:00,
2013-06-03 10:35:00,75.9,47.8,31.01,SE,137,0.0,0.0,37,0.00,,,0.00,VWS V13.01,2013-06-03 15:35:00,
2013-06-03 10:37:00,73.0,49.2,31.01,South,181,3.1,3.1,43,0.00,,,0.00,VWS V13.01,2013-06-03 15:37:00,
2013-06-03 10:38:00,71.6,47.9,31.01,ENE,60,0.0,0.0,43,0.00,,,0.00,VWS V13.01,2013-06-03 15:38:00,
2013-06-03 10:40:00,73.0,49.2,31.01,SE,143,3.1,3.1,43,0.00,,,0.00,VWS V13.01,2013-06-03 15:40:00,
2013-06-03 10:42:00,74.8,50.9,31.01,East,100,4.0,4.0,43,0.00,,,0.00,VWS V13.01,2013-06-03 15:42:00,
2013-06-03 10:43:00,73.9,50.1,31.01,ENE,61,4.0,4.0,43,0.00,,,0.00,VWS V13.01,2013-06-03 15:43:00,
2013-06-03 10:44:00,73.8,49.9,31.01,East,95,0.0,0.0,43,0.00,,,0.00,VWS V13.01,2013-06-03 15:44:00,
2013-06-03 10:46:00,74.8,50.9,31.01,ENE,66,2.7,2.7,43,0.00,,,0.00,VWS V13.01,2013-06-03 15:46:00,
2013-06-03 10:47:00,77.0,48.8,31.01,ESE,119,0.0,0.0,37,0.00,,,0.00,VWS V13.01,2013-06-03 15:47:00,
2013-06-03 10:48:00,77.5,49.2,31.01,ENE,70,3.6,3.6,37,0.00,,,0.00,VWS V13.01,2013-06-03 15:48:00,
2013-06-03 10:49:00,77.5,49.2,31.01,ESE,110,6.3,6.3,37,0.00,,,0.00,VWS V13.01,2013-06-03 15:49:00,
2013-06-03 10:51:00,75.4,47.3,31.01,ENE,69,3.1,3.1,37,0.00,,,0.00,VWS V13.01,2013-06-03 15:51:00,
2013-06-03 10:52:00,75.6,47.5,31.01,ENE,65,4.0,4.0,37,0.00,,,0.00,VWS V13.01,2013-06-03 15:52:00,
2013-06-03 10:53:00,75.9,47.8,31.01,ENE,75,2.7,2.7,37,0.00,,,0.00,VWS V13.01,2013-06-03 15:53:00,
2013-06-03 10:54:00,76.1,48.0,31.01,ESE,103,0.0,0.0,37,0.00,,,0.00,VWS V13.01,2013-06-03 15:54:00,
2013-06-03 10:56:00,77.0,48.8,31.01,South,179,3.1,3.1,37,0.00,,,0.00,VWS V13.01,2013-06-03 15:56:00,
2013-06-03 10:57:00,75.0,51.0,31.01,South,179,6.3,6.3,43,0.00,,,0.00,VWS V13.01,2013-06-03 15:57:00,
2013-06-03 10:58:00,75.0,51.0,31.01,South,178,4.0,4.0,43,0.00,,,0.00,VWS V13.01,2013-06-03 15:58:00,
2013-06-03 10:59:00,76.1,48.0,31.01,South,184,3.1,3.1,37,0.00,,,0.00,VWS V13.01,2013-06-03 15:59:00,
2013-06-03 11:01:00,76.6,48.4,31.01,South,175,0.0,0.0,37,0.00,,,0.00,VWS V13.01,2013-06-03 16:01:00,
2013-06-03 11:02:00,70.5,50.5,31.01,South,183,5.8,5.8,49,0.00,,,0.00,VWS V13.01,2013-06-03 16:02:00,
2013-06-03 11:03:00,70.3,50.3,31.01,South,179,6.3,6.3,49,0.00,,,0.00,VWS V13.01,2013-06-03 16:03:00,
2013-06-03 11:04:00,71.8,48.1,31.01,South,181,6.7,6.7,43,0.00,,,0.00,VWS V13.01,2013-06-03 16:04:00,
2013-06-03 11:06:00,73.6,49.7,31.01,ESE,121,0.0,0.0,43,0.00,,,0.00,VWS V13.01,2013-06-03 16:06:00,
2013-06-03 11:07:00,75.2,47.2,31.01,SE,132,0.0,0.0,37,0.00,,,0.00,VWS V13.01,2013-06-03 16:07:00,
2013-06-03 11:08:00,75.2,47.2,31.01,South,178,3.6,3.6,37,0.00,,,0.00,VWS V13.01,2013-06-03 16:08:00,
2013-06-03 11:09:00,75.2,47.2,31.01,South,176,0.0,0.0,37,0.00,,,0.00,VWS V13.01,2013-06-03 16:09:00,
2013-06-03 11:11:00,75.9,47.8,31.01,SSW,200,0.0,0.0,37,0.00,,,0.00,VWS V13.01,2013-06-03 16:11:00,
2013-06-03 11:13:00,77.5,49.2,31.01,SSE,148,2.7,2.7,37,0.00,,,0.00,VWS V13.01,2013-06-03 16:13:00,
2013-06-03 11:14:00,75.0,51.0,31.01,SSE,148,3.6,3.6,43,0.00,,,0.00,VWS V13.01,2013-06-03 16:14:00,
2013-06-03 11:17:00,75.9,47.8,31.01,SE,139,3.1,3.1,37,0.00,,,0.00,VWS V13.01,2013-06-03 16:17:00,
2013-06-03 11:18:00,75.9,47.8,31.01,South,173,5.4,5.4,37,0.00,,,0.00,VWS V13.01,2013-06-03 16:18:00,
2013-06-03 11:19:00,76.8,48.6,31.01,East,84,4.9,4.9,37,0.00,,,0.00,VWS V13.01,2013-06-03 16:19:00,
2013-06-03 11:22:00,74.7,50.7,31.01,ENE,64,2.2,2.2,43,0.00,,,0.00,VWS V13.01,2013-06-03 16:22:00,
2013-06-03 11:23:00,75.4,47.3,31.01,ENE,65,0.0,0.0,37,0.00,,,0.00,VWS V13.01,2013-06-03 16:23:00,
2013-06-03 11:24:00,76.5,48.3,31.01,South,169,5.4,5.4,37,0.00,,,0.00,VWS V13.01,2013-06-03 16:24:00,
2013-06-03 11:25:00,76.5,48.3,31.01,SSW,196,5.8,5.8,37,0.00,,,0.00,VWS V13.01,2013-06-03 16:25:00,
2013-06-03 11:27:00,72.0,48.3,31.01,South,181,5.8,5.8,43,0.00,,,0.00,VWS V13.01,2013-06-03 16:27:00,
2013-06-03 11:28:00,72.9,49.1,31.01,ENE,60,3.6,3.6,43,0.00,,,0.00,VWS V13.01,2013-06-03 16:28:00,
2013-06-03 11:29:00,73.0,49.2,31.01,East,79,3.6,3.6,43,0.00,,,0.00,VWS V13.01,2013-06-03 16:29:00,
2013-06-03 11:30:00,73.8,49.9,31.01,East,79,0.0,0.0,43,0.00,,,0.00,VWS V13.01,2013-06-03 16:30:00,
2013-06-03 11:32:00,73.8,49.9,31.01,ENE,61,2.7,2.7,43,0.00,,,0.00,VWS V13.01,2013-06-03 16:32:00,
2013-06-03 11:33:00,74.3,50.4,31.01,East,86,4.0,4.0,43,0.00,,,0.00,VWS V13.01,2013-06-03 16:33:00,
2013-06-03 11:34:00,73.2,49.4,31.01,NE,34,5.8,5.8,43,0.00,,,0.00,VWS V13.01,2013-06-03 16:34:00,
2013-06-03 11:35:00,73.4,49.6,31.01,East,84,3.6,3.6,43,0.00,,,0.00,VWS V13.01,2013-06-03 16:35:00,
2013-06-03 11:37:00,74.8,50.9,31.01,East,80,3.1,3.1,43,0.00,,,0.00,VWS V13.01,2013-06-03 16:37:00,
2013-06-03 11:38:00,75.6,47.5,31.01,ESE,109,0.0,0.0,37,0.00,,,0.00,VWS V13.01,2013-06-03 16:38:00,
2013-06-03 11:40:00,75.9,47.8,31.01,SSE,156,3.6,3.6,37,0.00,,,0.00,VWS V13.01,2013-06-03 16:40:00,
2013-06-03 11:42:00,75.7,47.7,31.01,SSE,156,2.7,2.7,37,0.00,,,0.00,VWS V13.01,2013-06-03 16:42:00,
2013-06-03 11:43:00,76.1,48.0,31.01,SSW,196,0.0,0.0,37,0.00,,,0.00,VWS V13.01,2013-06-03 16:43:00,
2013-06-03 11:45:00,74.3,50.4,31.01,South,186,4.5,4.5,43,0.00,,,0.00,VWS V13.01,2013-06-03 16:45:00,
2013-06-03 11:47:00,75.6,47.5,31.01,South,176,3.1,3.1,37,0.00,,,0.00,VWS V13.01,2013-06-03 16:47:00,
2013-06-03 11:48:00,75.9,47.8,31.01,SSW,199,2.2,2.2,37,0.00,,,0.00,VWS V13.01,2013-06-03 16:48:00,
2013-06-03 11:50:00,74.8,50.9,31.01,ESE,121,2.7,2.7,43,0.00,,,0.00,VWS V13.01,2013-06-03 16:50:00,
2013-06-03 11:52:00,75.4,47.3,31.01,SSE,152,2.2,2.2,37,0.00,,,0.00,VWS V13.01,2013-06-03 16:52:00,
2013-06-03 11:53:00,76.1,48.0,31.01,ENE,58,0.0,0.0,37,0.00,,,0.00,VWS V13.01,2013-06-03 16:53:00,
2013-06-03 11:54:00,76.5,48.3,31.01,SSE,154,0.0,0.0,37,0.00,,,0.00,VWS V13.01,2013-06-03 16:54:00,
2013-06-03 11:55:00,76.5,48.3,31.01,SE,137,0.0,0.0,37,0.00,,,0.00,VWS V13.01,2013-06-03 16:55:00,
2013-06-03 11:57:00,75.9,47.8,31.01,East,95,2.7,2.7,37,0.00,,,0.00,VWS V13.01,2013-06-03 16:57:00,
2013-06-03 11:58:00,75.9,47.8,31.01,ENE,72,0.0,0.0,37,0.00,,,0.00,VWS V13.01,2013-06-03 16:58:00,
2013-06-03 11:59:00,75.4,47.3,31.01,ENE,72,0.0,0.0,37,0.00,,,0.00,VWS V13.01,2013-06-03 16:59:00,
2013-06-03 12:00:00,76.6,48.4,31.01,SSW,199,0.0,0.0,37,0.00,,,0.00,VWS V13.01,2013-06-03 17:00:00,
2013-06-03 12:02:00,75.2,47.2,31.01,NE,46,3.6,3.6,37,0.00,,,0.00,VWS V13.01,2013-06-03 17:02:00,
2013-06-03 12:03:00,73.6,49.7,31.01,SSW,194,3.6,3.6,43,0.00,,,0.00,VWS V13.01,2013-06-03 17:03:00,
2013-06-03 12:05:00,75.2,47.2,31.01,East,87,2.7,2.7,37,0.00,,,0.00,VWS V13.01,2013-06-03 17:05:00,
2013-06-03 12:07:00,74.8,50.9,31.01,South,176,3.6,3.6,43,0.00,,,0.00,VWS V13.01,2013-06-03 17:07:00,
2013-06-03 12:08:00,73.8,49.9,31.01,South,191,3.1,3.1,43,0.00,,,0.00,VWS V13.01,2013-06-03 17:08:00,
2013-06-03 12:09:00,73.4,49.6,31.01,SSW,195,3.6,3.6,43,0.00,,,0.00,VWS V13.01,2013-06-03 17:09:00,
2013-06-03 12:10:00,74.7,50.7,31.01,ENE,70,2.7,2.7,43,0.00,,,0.00,VWS V13.01,2013-06-03 17:10:00,
2013-06-03 12:12:00,73.6,49.7,31.01,ESE,109,3.1,3.1,43,0.00,,,0.00,VWS V13.01,2013-06-03 17:12:00,
2013-06-03 12:13:00,74.1,50.2,31.01,ESE,111,0.0,0.0,43,0.00,,,0.00,VWS V13.01,2013-06-03 17:13:00,
2013-06-03 12:14:00,74.8,50.9,31.01,ENE,78,0.0,0.0,43,0.00,,,0.00,VWS V13.01,2013-06-03 17:14:00,
2013-06-03 12:15:00,75.6,47.5,31.01,North,0,0.0,0.0,37,0.00,,,0.00,VWS V13.01,2013-06-03 17:15:00,
2013-06-03 12:17:00,74.8,50.9,31.01,ENE,78,4.9,4.9,43,0.00,,,0.00,VWS V13.01,2013-06-03 17:17:00,
2013-06-03 12:18:00,75.7,47.7,31.01,ENE,68,3.6,3.6,37,0.00,,,0.00,VWS V13.01,2013-06-03 17:18:00,
2013-06-03 12:19:00,75.9,47.8,31.01,South,179,5.8,5.8,37,0.00,,,0.00,VWS V13.01,2013-06-03 17:19:00,
2013-06-03 12:20:00,74.1,50.2,31.01,SSE,158,6.3,6.3,43,0.00,,,0.00,VWS V13.01,2013-06-03 17:20:00,
2013-06-03 12:21:00,74.1,50.2,31.01,SSE,155,4.9,4.9,43,0.00,,,0.00,VWS V13.01,2013-06-03 17:21:00,
2013-06-03 12:23:00,76.1,48.0,31.01,SSE,149,3.1,3.1,37,0.00,,,0.00,VWS V13.01,2013-06-03 17:23:00,
2013-06-03 12:24:00,75.6,47.5,31.01,South,177,2.2,2.2,37,0.00,,,0.00,VWS V13.01,2013-06-03 17:24:00,
2013-06-03 12:25:00,75.7,47.7,31.01,South,182,3.6,3.6,37,0.00,,,0.00,VWS V13.01,2013-06-03 17:25:00,
2013-06-03 12:26:00,75.7,47.7,31.01,South,183,2.7,2.7,37,0.00,,,0.00,VWS V13.01,2013-06-03 17:26:00,
2013-06-03 12:28:00,77.7,49.4,31.01,ENE,77,3.6,3.6,37,0.00,,,0.00,VWS V13.01,2013-06-03 17:28:00,
2013-06-03 12:29:00,77.9,49.6,31.01,ESE,123,3.6,3.6,37,0.00,,,0.00,VWS V13.01,2013-06-03 17:29:00,
2013-06-03 12:30:00,75.7,47.7,31.01,SSW,193,3.6,3.6,37,0.00,,,0.00,VWS V13.01,2013-06-03 17:30:00,
2013-06-03 12:31:00,75.9,47.8,31.01,South,188,3.6,3.6,37,0.00,,,0.00,VWS V13.01,2013-06-03 17:31:00,
2013-06-03 12:33:00,76.3,48.1,31.01,SSE,162,2.7,2.7,37,0.00,,,0.00,VWS V13.01,2013-06-03 17:33:00,
2013-06-03 12:34:00,77.4,49.1,31.01,East,94,3.1,3.1,37,0.00,,,0.00,VWS V13.01,2013-06-03 17:34:00,
2013-06-03 12:36:00,76.1,48.0,31.01,South,180,5.8,5.8,37,0.00,,,0.00,VWS V13.01,2013-06-03 17:36:00,
2013-06-03 12:38:00,74.8,50.9,31.01,ENE,72,2.7,2.7,43,0.00,,,0.00,VWS V13.01,2013-06-03 17:38:00,
2013-06-03 12:39:00,73.8,49.9,31.01,South,180,8.3,8.3,43,0.00,,,0.00,VWS V13.01,2013-06-03 17:39:00,
2013-06-03 12:41:00,73.9,50.1,31.01,SSW,197,7.6,7.6,43,0.00,,,0.00,VWS V13.01,2013-06-03 17:41:00,
2013-06-03 12:43:00,75.7,47.7,31.01,South,178,0.0,0.0,37,0.00,,,0.00,VWS V13.01,2013-06-03 17:43:00,
2013-06-03 12:44:00,77.5,49.2,31.01,South,182,3.1,3.1,37,0.00,,,0.00,VWS V13.01,2013-06-03 17:44:00,
2013-06-03 12:46:00,75.6,47.5,31.01,South,177,8.3,8.3,37,0.00,,,0.00,VWS V13.01,2013-06-03 17:46:00,
2013-06-03 12:48:00,74.5,50.5,31.01,South,184,4.0,4.0,43,0.00,,,0.00,VWS V13.01,2013-06-03 17:48:00,
2013-06-03 12:49:00,74.8,50.9,31.01,South,184,7.6,7.6,43,0.00,,,0.00,VWS V13.01,2013-06-03 17:49:00,
2013-06-03 12:51:00,76.8,48.6,31.01,SSE,151,0.0,0.0,37,0.00,,,0.00,VWS V13.01,2013-06-03 17:51:00,
2013-06-03 12:52:00,78.1,49.7,31.01,South,184,0.0,0.0,37,0.00,,,0.00,VWS V13.01,2013-06-03 17:52:00,
2013-06-03 12:53:00,73.9,50.1,31.01,South,180,8.1,8.1,43,0.00,,,0.00,VWS V13.01,2013-06-03 17:53:00,
2013-06-03 12:54:00,73.9,50.1,31.01,South,181,4.9,4.9,43,0.00,,,0.00,VWS V13.01,2013-06-03 17:54:00,
2013-06-03 12:56:00,76.3,48.1,31.01,SSW,193,5.4,5.4,37,0.00,,,0.00,VWS V13.01,2013-06-03 17:56:00,
2013-06-03 12:57:00,76.5,48.3,31.01,SSW,193,5.8,5.8,37,0.00,,,0.00,VWS V13.01,2013-06-03 17:57:00,
2013-06-03 12:58:00,76.8,48.6,31.01,SSE,149,0.0,0.0,37,0.00,,,0.00,VWS V13.01,2013-06-03 17:58:00,
2013-06-03 12:59:00,77.2,48.9,31.01,SSE,149,4.0,4.0,37,0.00,,,0.00,VWS V13.01,2013-06-03 17:59:00,
2013-06-03 13:01:00,75.7,47.7,31.01,South,187,3.6,3.6,37,0.00,,,0.00,VWS V13.01,2013-06-03 18:01:00,
2013-06-03 13:02:00,76.3,48.1,31.01,South,178,3.1,3.1,37,0.00,,,0.00,VWS V13.01,2013-06-03 18:02:00,
2013-06-03 13:03:00,74.3,50.4,31.01,South,187,7.6,7.6,43,0.00,,,0.00,VWS V13.01,2013-06-03 18:03:00,
2013-06-03 13:04:00,74.1,50.2,31.01,South,189,6.3,6.3,43,0.00,,,0.00,VWS V13.01,2013-06-03 18:04:00,
2013-06-03 13:07:00,76.8,48.6,31.01,SE,137,0.0,0.0,37,0.00,,,0.00,VWS V13.01,2013-06-03 18:07:00,
2013-06-03 13:08:00,77.5,49.2,31.01,ESE,108,5.4,5.4,37,0.00,,,0.00,VWS V13.01,2013-06-03 18:08:00,
2013-06-03 13:09:00,76.8,59.5,31.01,ESE,118,2.7,2.7,55,0.00,,,0.00,VWS V13.01,2013-06-03 18:09:00,
2013-06-03 13:12:00,78.4,61.0,31.01,SE,124,2.7,2.7,55,0.00,,,0.00,VWS V13.01,2013-06-03 18:12:00,
2013-06-03 13:13:00,79.0,58.2,31.01,South,191,4.9,4.9,49,0.00,,,0.00,VWS V13.01,2013-06-03 18:13:00,
2013-06-03 13:14:00,79.3,58.5,31.01,South,174,0.0,0.0,49,0.00,,,0.00,VWS V13.01,2013-06-03 18:14:00,
2013-06-03 13:17:00,79.2,58.4,31.01,South,189,2.7,2.7,49,0.00,,,0.00,VWS V13.01,2013-06-03 18:17:00,
2013-06-03 13:18:00,78.3,60.8,31.01,SSW,193,3.6,3.6,55,0.00,,,0.00,VWS V13.01,2013-06-03 18:18:00,
2013-06-03 13:19:00,78.3,60.8,31.01,South,179,5.4,5.4,55,0.00,,,0.00,VWS V13.01,2013-06-03 18:19:00,
2013-06-03 13:22:00,76.3,58.9,31.01,SE,143,3.1,3.1,55,0.00,,,0.00,VWS V13.01,2013-06-03 18:22:00,
2013-06-03 13:23:00,76.8,59.5,31.01,ENE,77,5.4,5.4,55,0.00,,,0.00,VWS V13.01,2013-06-03 18:23:00,
2013-06-03 13:24:00,77.4,60.0,31.01,ESE,105,2.7,2.7,55,0.00,,,0.00,VWS V13.01,2013-06-03 18:24:00,
2013-06-03 13:27:00,77.9,60.5,31.01,East,90,2.7,2.7,55,0.00,,,0.00,VWS V13.01,2013-06-03 18:27:00,
2013-06-03 13:28:00,76.5,59.1,31.01,SSE,159,5.4,5.4,55,0.00,,,0.00,VWS V13.01,2013-06-03 18:28:00,
2013-06-03 13:29:00,77.9,60.5,31.01,SSE,160,0.0,0.0,55,0.00,,,0.00,VWS V13.01,2013-06-03 18:29:00,
2013-06-03 13:32:00,77.9,60.5,31.01,East,93,2.2,2.2,55,0.00,,,0.00,VWS V13.01,2013-06-03 18:32:00,
2013-06-03 13:33:00,77.5,60.1,31.01,East,99,2.7,2.7,55,0.00,,,0.00,VWS V13.01,2013-06-03 18:33:00,
2013-06-03 13:34:00,77.7,60.3,31.01,ENE,70,3.1,3.1,55,0.00,,,0.00,VWS V13.01,2013-06-03 18:34:00,
2013-06-03 13:37:00,77.4,60.0,31.01,South,177,4.0,4.0,55,0.00,,,0.00,VWS V13.01,2013-06-03 18:37:00,
2013-06-03 13:38:00,73.4,56.3,31.01,South,176,10.1,10.1,55,0.00,,,0.00,VWS V13.01,2013-06-03 18:38:00,
2013-06-03 13:39:00,74.3,57.1,31.01,South,177,9.2,9.2,55,0.00,,,0.00,VWS V13.01,2013-06-03 18:39:00,
2013-06-03 13:40:00,74.3,57.1,31.01,South,177,9.2,9.2,55,0.00,,,0.00,VWS V13.01,2013-06-03 18:40:00,
2013-06-03 13:42:00,70.9,50.8,31.01,South,176,11.0,11.0,49,0.00,,,0.00,VWS V13.01,2013-06-03 18:42:00,
2013-06-03 13:43:00,70.9,50.8,31.01,South,176,11.0,11.0,49,0.00,,,0.00,VWS V13.01,2013-06-03 18:43:00,
2013-06-03 13:44:00,70.9,50.8,31.01,South,185,8.7,8.7,49,0.00,,,0.00,VWS V13.01,2013-06-03 18:44:00,
2013-06-03 13:45:00,71.1,51.0,31.01,South,181,8.1,8.1,49,0.00,,,0.00,VWS V13.01,2013-06-03 18:45:00,
2013-06-03 13:47:00,73.2,49.4,31.01,South,179,4.0,4.0,43,0.00,,,0.00,VWS V13.01,2013-06-03 18:47:00,
2013-06-03 13:48:00,73.2,49.4,31.01,SSW,200,4.9,4.9,43,0.00,,,0.00,VWS V13.01,2013-06-03 18:48:00,
2013-06-03 13:49:00,73.4,49.6,31.01,South,173,5.4,5.4,43,0.00,,,0.00,VWS V13.01,2013-06-03 18:49:00,
2013-06-03 13:50:00,73.9,50.1,31.01,South,189,5.4,5.4,43,0.00,,,0.00,VWS V13.01,2013-06-03 18:50:00,
2013-06-03 13:53:00,72.3,48.6,31.01,South,189,8.1,8.1,43,0.00,,,0.00,VWS V13.01,2013-06-03 18:53:00,
2013-06-03 13:54:00,73.0,49.2,31.01,South,182,5.8,5.8,43,0.00,,,0.00,VWS V13.01,2013-06-03 18:54:00,
2013-06-03 13:55:00,72.0,48.3,31.01,SSW,194,7.6,7.6,43,0.00,,,0.00,VWS V13.01,2013-06-03 18:55:00,
2013-06-03 13:58:00,71.4,51.3,31.01,South,173,11.0,11.0,49,0.00,,,0.00,VWS V13.01,2013-06-03 18:58:00,
2013-06-03 13:59:00,72.0,48.3,31.01,South,190,6.3,6.3,43,0.00,,,0.00,VWS V13.01,2013-06-03 18:59:00,
2013-06-03 14:00:00,72.9,49.1,31.01,South,173,7.6,7.6,43,0.00,,,0.00,VWS V13.01,2013-06-03 19:00:00,
2013-06-03 14:03:00,75.6,47.5,31.01,South,181,5.8,5.8,37,0.00,,,0.00,VWS V13.01,2013-06-03 19:03:00,
2013-06-03 14:04:00,74.7,50.7,31.01,South,172,8.7,8.7,43,0.00,,,0.00,VWS V13.01,2013-06-03 19:04:00,
2013-06-03 14:05:00,73.4,49.6,31.01,South,174,8.3,8.3,43,0.00,,,0.00,VWS V13.01,2013-06-03 19:05:00,
2013-06-03 14:08:00,72.3,48.6,31.01,South,187,10.1,10.1,43,0.00,,,0.00,VWS V13.01,2013-06-03 19:08:00,
2013-06-03 14:09:00,72.0,48.3,31.01,South,180,8.1,8.1,43,0.00,,,0.00,VWS V13.01,2013-06-03 19:09:00,
2013-06-03 14:10:00,71.8,48.1,31.01,South,185,8.7,8.7,43,0.00,,,0.00,VWS V13.01,2013-06-03 19:10:00,
2013-06-03 14:13:00,71.8,48.1,31.01,South,174,6.3,6.3,43,0.00,,,0.00,VWS V13.01,2013-06-03 19:13:00,
2013-06-03 14:14:00,72.3,48.6,31.01,South,175,5.4,5.4,43,0.00,,,0.00,VWS V13.01,2013-06-03 19:14:00,
2013-06-03 14:15:00,73.0,49.2,31.01,SE,144,3.6,3.6,43,0.00,,,0.00,VWS V13.01,2013-06-03 19:15:00,
2013-06-03 14:18:00,72.9,49.1,31.01,South,182,5.4,5.4,43,0.00,,,0.00,VWS V13.01,2013-06-03 19:18:00,
2013-06-03 14:19:00,72.9,49.1,31.01,SE,143,8.1,8.1,43,0.00,,,0.00,VWS V13.01,2013-06-03 19:19:00,
2013-06-03 14:20:00,73.8,49.9,31.01,ESE,104,3.1,3.1,43,0.00,,,0.00,VWS V13.01,2013-06-03 19:20:00,
2013-06-03 14:23:00,74.3,50.4,31.01,ESE,104,0.0,0.0,43,0.00,,,0.00,VWS V13.01,2013-06-03 19:23:00,
2013-06-03 14:24:00,74.1,50.2,31.01,SSW,200,0.0,0.0,43,0.00,,,0.00,VWS V13.01,2013-06-03 19:24:00,
2013-06-03 14:25:00,73.9,50.1,31.01,NNE,28,2.7,2.7,43,0.00,,,0.00,VWS V13.01,2013-06-03 19:25:00,
2013-06-03 14:28:00,72.1,48.4,31.01,South,176,8.3,8.3,43,0.00,,,0.00,VWS V13.01,2013-06-03 19:28:00,
2013-06-03 14:29:00,72.1,48.4,31.01,South,176,8.3,8.3,43,0.00,,,0.00,VWS V13.01,2013-06-03 19:29:00,
2013-06-03 14:30:00,71.1,51.0,31.01,South,180,4.0,4.0,49,0.00,,,0.00,VWS V13.01,2013-06-03 19:30:00,
2013-06-03 14:33:00,71.4,51.3,31.01,South,187,3.6,3.6,49,0.00,,,0.00,VWS V13.01,2013-06-03 19:33:00,
2013-06-03 14:34:00,71.2,51.1,31.01,South,187,4.0,4.0,49,0.00,,,0.00,VWS V13.01,2013-06-03 19:34:00,
2013-06-03 14:35:00,71.4,51.3,31.01,South,184,4.0,4.0,49,0.00,,,0.00,VWS V13.01,2013-06-03 19:35:00,
2013-06-03 14:38:00,71.1,51.0,31.01,SSW,208,4.0,4.0,49,0.00,,,0.00,VWS V13.01,2013-06-03 19:38:00,
2013-06-03 14:39:00,71.1,51.0,31.01,SSW,192,3.6,3.6,49,0.00,,,0.00,VWS V13.01,2013-06-03 19:39:00,
2013-06-03 14:40:00,71.1,51.0,31.01,South,174,8.3,8.3,49,0.00,,,0.00,VWS V13.01,2013-06-03 19:40:00,
2013-06-03 14:43:00,71.8,48.1,31.01,South,187,5.8,5.8,43,0.00,,,0.00,VWS V13.01,2013-06-03 19:43:00,
2013-06-03 14:44:00,71.8,48.1,31.01,SSW,195,4.9,4.9,43,0.00,,,0.00,VWS V13.01,2013-06-03 19:44:00,
2013-06-03 14:45:00,72.0,48.3,31.01,SSW,197,3.6,3.6,43,0.00,,,0.00,VWS V13.01,2013-06-03 19:45:00,
2013-06-03 14:46:00,72.1,48.4,31.01,SSE,163,3.6,3.6,43,0.00,,,0.00,VWS V13.01,2013-06-03 19:46:00,
2013-06-03 14:48:00,71.1,51.0,31.01,SSW,202,6.3,6.3,49,0.00,,,0.00,VWS V13.01,2013-06-03 19:48:00,
2013-06-03 14:49:00,71.1,51.0,31.01,South,190,4.9,4.9,49,0.00,,,0.00,VWS V13.01,2013-06-03 19:49:00,
2013-06-03 14:50:00,71.1,51.0,31.01,South,187,8.7,8.7,49,0.00,,,0.00,VWS V13.01,2013-06-03 19:50:00,
2013-06-03 14:51:00,71.1,51.0,31.01,SSE,155,4.0,4.0,49,0.00,,,0.00,VWS V13.01,2013-06-03 19:51:00,
2013-06-03 14:53:00,71.6,47.9,31.01,South,184,3.1,3.1,43,0.00,,,0.00,VWS V13.01,2013-06-03 19:53:00,
2013-06-03 14:54:00,71.6,47.9,31.01,ESE,112,4.0,4.0,43,0.00,,,0.00,VWS V13.01,2013-06-03 19:54:00,
2013-06-03 14:55:00,71.6,47.9,31.01,SSE,153,0.0,0.0,43,0.00,,,0.00,VWS V13.01,2013-06-03 19:55:00,
2013-06-03 14:56:00,72.0,48.3,31.01,South,190,5.8,5.8,43,0.00,,,0.00,VWS V13.01,2013-06-03 19:56:00,
2013-06-03 14:58:00,72.9,49.1,31.01,South,176,5.8,5.8,43,0.00,,,0.00,VWS V13.01,2013-06-03 19:58:00,
2013-06-03 14:59:00,73.4,49.6,31.01,SSE,168,2.7,2.7,43,0.00,,,0.00,VWS V13.01,2013-06-03 19:59:00,
2013-06-03 15:00:00,73.6,49.7,31.01,South,178,0.0,0.0,43,0.00,,,0.00,VWS V13.01,2013-06-03 20:00:00,
2013-06-03 15:02:00,73.2,49.4,31.01,SSE,162,3.6,3.6,43,0.00,,,0.00,VWS V13.01,2013-06-03 20:02:00,
2013-06-03 15:04:00,72.1,48.4,31.01,South,170,11.0,11.0,43,0.00,,,0.00,VWS V13.01,2013-06-03 20:04:00,
2013-06-03 15:05:00,70.2,50.1,31.01,South,188,7.2,7.2,49,0.00,,,0.00,VWS V13.01,2013-06-03 20:05:00,
2013-06-03 15:07:00,70.0,50.0,31.01,South,177,8.7,8.7,49,0.00,,,0.00,VWS V13.01,2013-06-03 20:07:00,
2013-06-03 15:09:00,70.9,50.8,31.01,South,184,0.0,0.0,49,0.00,,,0.00,VWS V13.01,2013-06-03 20:09:00,
2013-06-03 15:10:00,71.2,51.1,31.01,East,89,0.0,0.0,49,0.00,,,0.00,VWS V13.01,2013-06-03 20:10:00,
2013-06-03 15:12:00,71.6,47.9,31.01,East,81,3.6,3.6,43,0.00,,,0.00,VWS V13.01,2013-06-03 20:12:00,
2013-06-03 15:14:00,71.8,48.1,31.01,South,177,5.4,5.4,43,0.00,,,0.00,VWS V13.01,2013-06-03 20:14:00,
2013-06-03 15:15:00,72.0,48.3,31.01,South,177,5.8,5.8,43,0.00,,,0.00,VWS V13.01,2013-06-03 20:15:00,
2013-06-03 15:17:00,70.9,50.8,31.01,SSW,204,6.3,6.3,49,0.00,,,0.00,VWS V13.01,2013-06-03 20:17:00,
2013-06-03 15:19:00,70.5,50.5,31.01,South,173,7.6,7.6,49,0.00,,,0.00,VWS V13.01,2013-06-03 20:19:00,
2013-06-03 15:20:00,70.0,50.0,31.01,South,187,6.7,6.7,49,0.00,,,0.00,VWS V13.01,2013-06-03 20:20:00,
2013-06-03 15:22:00,70.2,50.1,31.01,SSE,152,4.5,4.5,49,0.00,,,0.00,VWS V13.01,2013-06-03 20:22:00,
2013-06-03 15:24:00,70.3,50.3,31.01,South,177,8.7,8.7,49,0.00,,,0.00,VWS V13.01,2013-06-03 20:24:00,
2013-06-03 15:25:00,70.3,50.3,31.01,South,190,6.3,6.3,49,0.00,,,0.00,VWS V13.01,2013-06-03 20:25:00,
2013-06-03 15:27:00,71.1,51.0,31.01,South,188,6.7,6.7,49,0.00,,,0.00,VWS V13.01,2013-06-03 20:27:00,
2013-06-03 15:29:00,71.1,51.0,31.01,South,178,5.8,5.8,49,0.00,,,0.00,VWS V13.01,2013-06-03 20:29:00,
2013-06-03 15:30:00,70.3,50.3,31.01,South,186,7.6,7.6,49,0.00,,,0.00,VWS V13.01,2013-06-03 20:30:00,
2013-06-03 15:32:00,70.3,50.3,31.01,South,181,8.1,8.1,49,0.00,,,0.00,VWS V13.01,2013-06-03 20:32:00,
2013-06-03 15:34:00,70.5,50.5,31.01,South,180,8.1,8.1,49,0.00,,,0.00,VWS V13.01,2013-06-03 20:34:00,
2013-06-03 15:35:00,70.2,50.1,31.01,South,173,8.1,8.1,49,0.00,,,0.00,VWS V13.01,2013-06-03 20:35:00,
2013-06-03 15:37:00,70.2,50.1,31.01,South,178,8.7,8.7,49,0.00,,,0.00,VWS V13.01,2013-06-03 20:37:00,
2013-06-03 15:39:00,70.2,50.1,31.01,South,180,7.6,7.6,49,0.00,,,0.00,VWS V13.01,2013-06-03 20:39:00,
2013-06-03 15:40:00,70.3,50.3,31.01,South,176,7.6,7.6,49,0.00,,,0.00,VWS V13.01,2013-06-03 20:40:00,
2013-06-03 15:42:00,70.7,50.6,31.01,South,176,0.0,0.0,49,0.00,,,0.00,VWS V13.01,2013-06-03 20:42:00,
2013-06-03 15:44:00,70.7,50.6,31.01,South,169,7.6,7.6,49,0.00,,,0.00,VWS V13.01,2013-06-03 20:44:00,
2013-06-03 15:46:00,71.1,51.0,31.01,South,190,5.8,5.8,49,0.00,,,0.00,VWS V13.01,2013-06-03 20:46:00,
2013-06-03 15:47:00,71.1,51.0,31.01,SSW,204,8.1,8.1,49,0.00,,,0.00,VWS V13.01,2013-06-03 20:47:00,
2013-06-03 15:49:00,70.9,50.8,31.01,South,184,8.3,8.3,49,0.00,,,0.00,VWS V13.01,2013-06-03 20:49:00,
2013-06-03 15:51:00,71.1,51.0,31.01,South,185,3.1,3.1,49,0.00,,,0.00,VWS V13.01,2013-06-03 20:51:00,
2013-06-03 15:53:00,71.1,51.0,31.01,SSE,157,7.6,7.6,49,0.00,,,0.00,VWS V13.01,2013-06-03 20:53:00,
2013-06-03 15:54:00,71.1,51.0,31.01,South,176,9.6,9.6,49,0.00,,,0.00,VWS V13.01,2013-06-03 20:54:00,
2013-06-03 15:57:00,70.7,50.6,31.01,South,183,9.2,9.2,49,0.00,,,0.00,VWS V13.01,2013-06-03 20:57:00,
2013-06-03 15:58:00,70.7,50.6,31.01,South,178,8.1,8.1,49,0.00,,,0.00,VWS V13.01,2013-06-03 20:58:00,
2013-06-03 15:59:00,70.5,50.5,31.01,South,191,3.1,3.1,49,0.00,,,0.00,VWS V13.01,2013-06-03 20:59:00,
2013-06-03 16:02:00,70.9,50.8,31.01,South,175,8.1,8.1,49,0.00,,,0.00,VWS V13.01,2013-06-03 21:02:00,
2013-06-03 16:03:00,70.9,50.8,31.01,South,172,10.5,10.5,49,0.00,,,0.00,VWS V13.01,2013-06-03 21:03:00,
2013-06-03 16:04:00,70.3,50.3,31.01,South,180,8.7,8.7,49,0.00,,,0.00,VWS V13.01,2013-06-03 21:04:00,
2013-06-03 16:05:00,70.3,50.3,31.01,South,179,8.3,8.3,49,0.00,,,0.00,VWS V13.01,2013-06-03 21:05:00,
2013-06-03 16:07:00,70.7,50.6,31.01,SSE,160,3.1,3.1,49,0.00,,,0.00,VWS V13.01,2013-06-03 21:07:00,
2013-06-03 16:08:00,70.7,50.6,31.01,SSW,192,3.1,3.1,49,0.00,,,0.00,VWS V13.01,2013-06-03 21:08:00,
2013-06-03 16:09:00,70.9,50.8,31.01,SSE,153,2.7,2.7,49,0.00,,,0.00,VWS V13.01,2013-06-03 21:09:00,
2013-06-03 16:10:00,70.9,50.8,31.01,South,190,5.4,5.4,49,0.00,,,0.00,VWS V13.01,2013-06-03 21:10:00,
2013-06-03 16:12:00,71.1,51.0,31.01,South,185,3.1,3.1,49,0.00,,,0.00,VWS V13.01,2013-06-03 21:12:00,
2013-06-03 16:13:00,71.1,51.0,31.01,South,189,3.6,3.6,49,0.00,,,0.00,VWS V13.01,2013-06-03 21:13:00,
2013-06-03 16:14:00,71.6,47.9,31.01,SSE,159,5.8,5.8,43,0.00,,,0.00,VWS V13.01,2013-06-03 21:14:00,
2013-06-03 16:15:00,71.4,51.3,31.01,South,179,5.8,5.8,49,0.00,,,0.00,VWS V13.01,2013-06-03 21:15:00,
2013-06-03 16:17:00,71.4,51.3,31.01,South,178,3.6,3.6,49,0.00,,,0.00,VWS V13.01,2013-06-03 21:17:00,
2013-06-03 16:18:00,71.2,51.1,31.01,South,184,8.3,8.3,49,0.00,,,0.00,VWS V13.01,2013-06-03 21:18:00,
2013-06-03 16:20:00,71.2,51.1,31.01,South,179,8.3,8.3,49,0.00,,,0.00,VWS V13.01,2013-06-03 21:20:00,
2013-06-03 16:23:00,71.6,47.9,31.01,ENE,65,4.0,4.0,43,0.00,,,0.00,VWS V13.01,2013-06-03 21:23:00,
2013-06-03 16:25:00,71.4,51.3,31.01,SSE,149,3.1,3.1,49,0.00,,,0.00,VWS V13.01,2013-06-03 21:25:00,
2013-06-03 16:28:00,71.4,51.3,31.01,SSE,166,5.4,5.4,49,0.00,,,0.00,VWS V13.01,2013-06-03 21:28:00,
2013-06-03 16:30:00,71.6,47.9,31.01,South,189,7.6,7.6,43,0.00,,,0.00,VWS V13.01,2013-06-03 21:30:00,
2013-06-03 16:33:00,71.6,47.9,31.01,South,182,10.1,10.1,43,0.00,,,0.00,VWS V13.01,2013-06-03 21:33:00,
2013-06-03 16:35:00,71.8,48.1,31.01,South,176,5.4,5.4,43,0.00,,,0.00,VWS V13.01,2013-06-03 21:35:00,
2013-06-03 16:38:00,72.5,48.8,31.01,South,177,4.0,4.0,43,0.00,,,0.00,VWS V13.01,2013-06-03 21:38:00,
2013-06-03 16:40:00,72.3,48.6,31.01,South,175,9.2,9.2,43,0.00,,,0.00,VWS V13.01,2013-06-03 21:40:00,
2013-06-03 16:43:00,72.7,48.9,31.01,SE,144,2.7,2.7,43,0.00,,,0.00,VWS V13.01,2013-06-03 21:43:00,
2013-06-03 16:45:00,72.3,48.6,31.01,SSW,208,7.6,7.6,43,0.00,,,0.00,VWS V13.01,2013-06-03 21:45:00,
2013-06-03 16:48:00,72.0,48.3,31.01,South,176,5.8,5.8,43,0.00,,,0.00,VWS V13.01,2013-06-03 21:48:00,
2013-06-03 16:50:00,72.0,48.3,31.01,South,175,8.7,8.7,43,0.00,,,0.00,VWS V13.01,2013-06-03 21:50:00,
2013-06-03 16:53:00,72.3,48.6,31.01,SSW,195,4.9,4.9,43,0.00,,,0.00,VWS V13.01,2013-06-03 21:53:00,
2013-06-03 16:55:00,72.3,48.6,31.01,South,189,6.3,6.3,43,0.00,,,0.00,VWS V13.01,2013-06-03 21:55:00,
2013-06-03 16:58:00,72.0,48.3,31.01,South,175,5.8,5.8,43,0.00,,,0.00,VWS V13.01,2013-06-03 21:58:00,
2013-06-03 17:00:00,71.8,48.1,31.01,South,181,10.1,10.1,43,0.00,,,0.00,VWS V13.01,2013-06-03 22:00:00,
2013-06-03 17:01:00,71.8,48.1,31.01,SSW,196,4.9,4.9,43,0.00,,,0.00,VWS V13.01,2013-06-03 22:01:00,
2013-06-03 17:03:00,71.4,51.3,31.01,South,188,8.1,8.1,49,0.00,,,0.00,VWS V13.01,2013-06-03 22:03:00,
2013-06-03 17:04:00,71.6,47.9,31.01,SSW,199,5.8,5.8,43,0.00,,,0.00,VWS V13.01,2013-06-03 22:04:00,
2013-06-03 17:05:00,71.4,51.3,31.01,South,179,6.3,6.3,49,0.00,,,0.00,VWS V13.01,2013-06-03 22:05:00,
2013-06-03 17:07:00,71.4,51.3,31.01,SSE,168,4.9,4.9,49,0.00,,,0.00,VWS V13.01,2013-06-03 22:07:00,
2013-06-03 17:08:00,71.6,47.9,31.01,South,185,10.1,10.1,43,0.00,,,0.00,VWS V13.01,2013-06-03 22:08:00,
2013-06-03 17:09:00,71.4,51.3,31.01,South,179,8.3,8.3,49,0.00,,,0.00,VWS V13.01,2013-06-03 22:09:00,
2013-06-03 17:10:00,71.6,47.9,31.01,South,173,2.7,2.7,43,0.00,,,0.00,VWS V13.01,2013-06-03 22:10:00,
2013-06-03 17:12:00,71.4,51.3,31.01,SE,139,5.4,5.4,49,0.00,,,0.00,VWS V13.01,2013-06-03 22:12:00,
2013-06-03 17:13:00,71.4,51.3,31.01,SSE,147,8.3,8.3,49,0.00,,,0.00,VWS V13.01,2013-06-03 22:13:00,
2013-06-03 17:14:00,71.4,51.3,31.01,SE,142,5.8,5.8,49,0.00,,,0.00,VWS V13.01,2013-06-03 22:14:00,
2013-06-03 17:15:00,71.2,51.1,31.01,South,176,8.1,8.1,49,0.00,,,0.00,VWS V13.01,2013-06-03 22:15:00,
2013-06-03 17:16:00,71.2,51.1,31.01,SE,145,7.6,7.6,49,0.00,,,0.00,VWS V13.01,2013-06-03 22:16:00,
2013-06-03 17:17:00,71.2,51.1,31.01,SE,133,4.5,4.5,49,0.00,,,0.00,VWS V13.01,2013-06-03 22:17:00,
2013-06-03 17:18:00,71.2,51.1,31.01,South,185,4.9,4.9,49,0.00,,,0.00,VWS V13.01,2013-06-03 22:18:00,
2013-06-03 17:19:00,71.2,51.1,31.01,South,185,6.3,6.3,49,0.00,,,0.00,VWS V13.01,2013-06-03 22:19:00,
2013-06-03 17:20:00,71.2,51.1,31.01,South,189,8.3,8.3,49,0.00,,,0.00,VWS V13.01,2013-06-03 22:20:00,
2013-06-03 17:21:00,71.4,51.3,31.01,South,186,3.6,3.6,49,0.00,,,0.00,VWS V13.01,2013-06-03 22:21:00,
2013-06-03 17:22:00,71.6,47.9,31.01,South,185,0.0,0.0,43,0.00,,,0.00,VWS V13.01,2013-06-03 22:22:00,
2013-06-03 17:23:00,71.4,51.3,31.01,South,180,8.3,8.3,49,0.00,,,0.00,VWS V13.01,2013-06-03 22:23:00,
2013-06-03 17:24:00,71.6,47.9,31.01,SW,217,3.6,3.6,43,0.00,,,0.00,VWS V13.01,2013-06-03 22:24:00,
2013-06-03 17:25:00,71.6,47.9,31.01,East,95,4.0,4.0,43,0.00,,,0.00,VWS V13.01,2013-06-03 22:25:00,
2013-06-03 17:26:00,71.6,47.9,31.01,South,191,2.2,2.2,43,0.00,,,0.00,VWS V13.01,2013-06-03 22:26:00,
2013-06-03 17:27:00,71.8,48.1,31.01,SSE,159,0.0,0.0,43,0.00,,,0.00,VWS V13.01,2013-06-03 22:27:00,
2013-06-03 17:29:00,72.1,48.4,31.01,NE,52,0.0,0.0,43,0.00,,,0.00,VWS V13.01,2013-06-03 22:29:00,
2013-06-03 17:30:00,72.0,48.3,31.01,SSE,160,12.3,12.3,43,0.00,,,0.00,VWS V13.01,2013-06-03 22:30:00,
2013-06-03 17:31:00,71.8,48.1,31.01,South,179,8.7,8.7,43,0.00,,,0.00,VWS V13.01,2013-06-03 22:31:00,
2013-06-03 17:32:00,71.2,51.1,31.01,South,180,5.4,5.4,49,0.00,,,0.00,VWS V13.01,2013-06-03 22:32:00,
2013-06-03 17:34:00,71.4,51.3,31.01,SSE,164,4.9,4.9,49,0.00,,,0.00,VWS V13.01,2013-06-03 22:34:00,
2013-06-03 17:35:00,71.8,48.1,31.01,South,183,6.3,6.3,43,0.00,,,0.00,VWS V13.01,2013-06-03 22:35:00,
2013-06-03 17:36:00,71.8,48.1,31.01,South,188,3.1,3.1,43,0.00,,,0.00,VWS V13.01,2013-06-03 22:36:00,
2013-06-03 17:37:00,72.5,48.8,31.01,South,170,2.2,2.2,43,0.00,,,0.00,VWS V13.01,2013-06-03 22:37:00,
2013-06-03 17:39:00,72.7,48.9,31.01,South,181,3.1,3.1,43,0.00,,,0.00,VWS V13.01,2013-06-03 22:39:00,
2013-06-03 17:40:00,73.4,49.6,31.01,South,189,2.2,2.2,43,0.00,,,0.00,VWS V13.01,2013-06-03 22:40:00,
2013-06-03 17:41:00,73.8,49.9,31.01,South,180,4.0,4.0,43,0.00,,,0.00,VWS V13.01,2013-06-03 22:41:00,
2013-06-03 17:42:00,73.9,50.1,31.01,ESE,113,2.7,2.7,43,0.00,,,0.00,VWS V13.01,2013-06-03 22:42:00,
2013-06-03 17:44:00,73.9,50.1,31.01,South,182,6.7,6.7,43,0.00,,,0.00,VWS V13.01,2013-06-03 22:44:00,
2013-06-03 17:45:00,73.0,49.2,31.01,South,175,6.3,6.3,43,0.00,,,0.00,VWS V13.01,2013-06-03 22:45:00,
2013-06-03 17:46:00,72.7,48.9,31.01,SSE,160,4.9,4.9,43,0.00,,,0.00,VWS V13.01,2013-06-03 22:46:00,
2013-06-03 17:47:00,72.3,48.6,31.01,South,178,6.3,6.3,43,0.00,,,0.00,VWS V13.01,2013-06-03 22:47:00,
2013-06-03 17:49:00,72.0,48.3,31.01,South,180,6.3,6.3,43,0.00,,,0.00,VWS V13.01,2013-06-03 22:49:00,
2013-06-03 17:50:00,72.1,48.4,31.01,South,176,5.4,5.4,43,0.00,,,0.00,VWS V13.01,2013-06-03 22:50:00,
2013-06-03 17:51:00,71.8,48.1,31.01,South,172,5.4,5.4,43,0.00,,,0.00,VWS V13.01,2013-06-03 22:51:00,
2013-06-03 17:52:00,72.0,48.3,31.01,SE,141,2.2,2.2,43,0.00,,,0.00,VWS V13.01,2013-06-03 22:52:00,
2013-06-03 17:54:00,71.8,48.1,31.01,SSE,155,5.4,5.4,43,0.00,,,0.00,VWS V13.01,2013-06-03 22:54:00,
2013-06-03 17:55:00,71.6,47.9,31.01,South,171,3.1,3.1,43,0.00,,,0.00,VWS V13.01,2013-06-03 22:55:00,
2013-06-03 17:56:00,71.6,47.9,31.01,SSW,202,7.6,7.6,43,0.00,,,0.00,VWS V13.01,2013-06-03 22:56:00,
2013-06-03 17:58:00,71.2,51.1,31.01,ESE,116,3.1,3.1,49,0.00,,,0.00,VWS V13.01,2013-06-03 22:58:00,
2013-06-03 17:59:00,71.1,51.0,31.01,SSW,193,4.9,4.9,49,0.00,,,0.00,VWS V13.01,2013-06-03 22:59:00,
2013-06-03 18:00:00,70.9,50.8,31.01,South,180,4.0,4.0,49,0.00,,,0.00,VWS V13.01,2013-06-03 23:00:00,
2013-06-03 18:01:00,70.7,50.6,31.01,South,186,4.0,4.0,49,0.00,,,0.00,VWS V13.01,2013-06-03 23:01:00,
2013-06-03 18:03:00,70.7,50.6,31.01,South,179,3.1,3.1,49,0.00,,,0.00,VWS V13.01,2013-06-03 23:03:00,
2013-06-03 18:04:00,70.5,50.5,31.01,South,176,2.7,2.7,49,0.00,,,0.00,VWS V13.01,2013-06-03 23:04:00,
2013-06-03 18:05:00,70.7,50.6,31.01,SSE,168,0.0,0.0,49,0.00,,,0.00,VWS V13.01,2013-06-03 23:05:00,
2013-06-03 18:06:00,70.7,50.6,31.01,South,184,0.0,0.0,49,0.00,,,0.00,VWS V13.01,2013-06-03 23:06:00,
2013-06-03 18:08:00,70.9,50.8,31.01,South,185,0.0,0.0,49,0.00,,,0.00,VWS V13.01,2013-06-03 23:08:00,
2013-06-03 18:09:00,70.9,50.8,31.01,South,183,4.0,4.0,49,0.00,,,0.00,VWS V13.01,2013-06-03 23:09:00,
2013-06-03 18:10:00,71.1,51.0,31.01,SSW,194,0.0,0.0,49,0.00,,,0.00,VWS V13.01,2013-06-03 23:10:00,
2013-06-03 18:11:00,71.1,51.0,31.01,South,186,2.7,2.7,49,0.00,,,0.00,VWS V13.01,2013-06-03 23:11:00,
2013-06-03 18:13:00,71.2,51.1,31.01,SE,140,3.6,3.6,49,0.00,,,0.00,VWS V13.01,2013-06-03 23:13:00,
2013-06-03 18:14:00,71.4,51.3,31.01,SSW,205,0.0,0.0,49,0.00,,,0.00,VWS V13.01,2013-06-03 23:14:00,
2013-06-03 18:15:00,71.4,51.3,31.01,South,175,0.0,0.0,49,0.00,,,0.00,VWS V13.01,2013-06-03 23:15:00,
2013-06-03 18:16:00,71.6,47.9,31.01,South,175,0.0,0.0,43,0.00,,,0.00,VWS V13.01,2013-06-03 23:16:00,
2013-06-03 18:17:00,71.4,51.3,31.01,South,181,0.0,0.0,49,0.00,,,0.00,VWS V13.01,2013-06-03 23:17:00,
2013-06-03 18:18:00,71.4,51.3,31.01,South,178,3.1,3.1,49,0.00,,,0.00,VWS V13.01,2013-06-03 23:18:00,
2013-06-03 18:19:00,71.2,51.1,31.01,South,178,3.1,3.1,49,0.00,,,0.00,VWS V13.01,2013-06-03 23:19:00,
2013-06-03 18:20:00,71.4,51.3,31.01,South,187,0.0,0.0,49,0.00,,,0.00,VWS V13.01,2013-06-03 23:20:00,
2013-06-03 18:21:00,71.2,51.1,31.01,South,185,2.7,2.7,49,0.00,,,0.00,VWS V13.01,2013-06-03 23:21:00,
2013-06-03 18:22:00,71.1,51.0,31.01,SE,145,2.2,2.2,49,0.00,,,0.00,VWS V13.01,2013-06-03 23:22:00,
2013-06-03 18:23:00,71.1,51.0,31.01,SSE,166,4.0,4.0,49,0.00,,,0.00,VWS V13.01,2013-06-03 23:23:00,
2013-06-03 18:24:00,70.9,50.8,31.01,South,189,4.0,4.0,49,0.00,,,0.00,VWS V13.01,2013-06-03 23:24:00,
2013-06-03 18:25:00,70.7,50.6,31.01,South,183,3.1,3.1,49,0.00,,,0.00,VWS V13.01,2013-06-03 23:25:00,
2013-06-03 18:26:00,70.7,50.6,31.01,SSE,163,3.1,3.1,49,0.00,,,0.00,VWS V13.01,2013-06-03 23:26:00,
2013-06-03 18:27:00,70.7,50.6,31.01,South,179,0.0,0.0,49,0.00,,,0.00,VWS V13.01,2013-06-03 23:27:00,
2013-06-03 18:28:00,70.5,50.5,31.01,SSW,197,4.0,4.0,49,0.00,,,0.00,VWS V13.01,2013-06-03 23:28:00,
2013-06-03 18:29:00,70.5,50.5,31.01,South,187,3.6,3.6,49,0.00,,,0.00,VWS V13.01,2013-06-03 23:29:00,
2013-06-03 18:30:00,70.5,50.5,31.01,South,178,4.0,4.0,49,0.00,,,0.00,VWS V13.01,2013-06-03 23:30:00,
2013-06-03 18:31:00,70.5,50.5,31.01,South,191,2.2,2.2,49,0.00,,,0.00,VWS V13.01,2013-06-03 23:31:00,
2013-06-03 18:32:00,70.3,50.3,31.01,SSE,159,4.0,4.0,49,0.00,,,0.00,VWS V13.01,2013-06-03 23:32:00,
2013-06-03 18:33:00,70.3,50.3,31.01,SSE,166,2.7,2.7,49,0.00,,,0.00,VWS V13.01,2013-06-03 23:33:00,
2013-06-03 18:34:00,70.2,50.1,31.01,South,176,6.3,6.3,49,0.00,,,0.00,VWS V13.01,2013-06-03 23:34:00,
2013-06-03 18:35:00,70.2,50.1,31.01,South,188,6.3,6.3,49,0.00,,,0.00,VWS V13.01,2013-06-03 23:35:00,
2013-06-03 18:36:00,70.2,50.1,31.01,South,190,6.3,6.3,49,0.00,,,0.00,VWS V13.01,2013-06-03 23:36:00,
2013-06-03 18:37:00,70.2,50.1,31.01,South,188,4.0,4.0,49,0.00,,,0.00,VWS V13.01,2013-06-03 23:37:00,
2013-06-03 18:38:00,70.2,50.1,31.01,South,186,5.4,5.4,49,0.00,,,0.00,VWS V13.01,2013-06-03 23:38:00,
2013-06-03 18:39:00,70.2,50.1,31.01,South,185,5.4,5.4,49,0.00,,,0.00,VWS V13.01,2013-06-03 23:39:00,
2013-06-03 18:40:00,70.3,50.3,31.01,South,181,5.4,5.4,49,0.00,,,0.00,VWS V13.01,2013-06-03 23:40:00,
2013-06-03 18:42:00,70.5,50.5,31.01,South,177,5.8,5.8,49,0.00,,,0.00,VWS V13.01,2013-06-03 23:42:00,
2013-06-03 18:43:00,70.9,50.8,31.01,South,186,5.8,5.8,49,0.00,,,0.00,VWS V13.01,2013-06-03 23:43:00,
2013-06-03 18:44:00,71.2,51.1,31.01,South,177,5.8,5.8,49,0.00,,,0.00,VWS V13.01,2013-06-03 23:44:00,
2013-06-03 18:45:00,71.2,51.1,31.01,South,172,4.0,4.0,49,0.00,,,0.00,VWS V13.01,2013-06-03 23:45:00,
2013-06-03 18:47:00,71.4,51.3,31.01,South,172,4.0,4.0,49,0.00,,,0.00,VWS V13.01,2013-06-03 23:47:00,
2013-06-03 18:48:00,71.1,51.0,31.01,South,185,8.3,8.3,49,0.00,,,0.00,VWS V13.01,2013-06-03 23:48:00,
2013-06-03 18:49:00,71.2,51.1,31.01,South,186,3.6,3.6,49,0.00,,,0.00,VWS V13.01,2013-06-03 23:49:00,
2013-06-03 18:50:00,71.2,51.1,31.01,SSE,165,4.0,4.0,49,0.00,,,0.00,VWS V13.01,2013-06-03 23:50:00,
2013-06-03 18:52:00,71.2,51.1,31.01,SSE,160,3.6,3.6,49,0.00,,,0.00,VWS V13.01,2013-06-03 23:52:00,
2013-06-03 18:53:00,71.1,51.0,31.01,South,182,5.8,5.8,49,0.00,,,0.00,VWS V13.01,2013-06-03 23:53:00,
2013-06-03 18:54:00,71.1,51.0,31.01,SE,142,3.6,3.6,49,0.00,,,0.00,VWS V13.01,2013-06-03 23:54:00,
2013-06-03 18:55:00,71.2,51.1,31.01,South,186,5.4,5.4,49,0.00,,,0.00,VWS V13.01,2013-06-03 23:55:00,
2013-06-03 18:57:00,71.4,51.3,31.01,SSW,194,6.3,6.3,49,0.00,,,0.00,VWS V13.01,2013-06-03 23:57:00,
2013-06-03 18:58:00,71.8,48.1,31.01,SSE,165,4.0,4.0,43,0.00,,,0.00,VWS V13.01,2013-06-03 23:58:00,
2013-06-03 18:59:00,72.1,48.4,31.01,South,183,3.6,3.6,43,0.00,,,0.00,VWS V13.01,2013-06-03 23:59:00,
2013-06-03 19:00:00,72.3,48.6,31.01,SSE,152,2.7,2.7,43,0.00,,,0.00,VWS V13.01,2013-06-04 00:00:00,
2013-06-03 19:02:00,72.5,48.8,31.01,South,182,4.9,4.9,43,0.00,,,0.00,VWS V13.01,2013-06-04 00:02:00,
2013-06-03 19:03:00,72.3,48.6,31.01,South,187,4.9,4.9,43,0.00,,,0.00,VWS V13.01,2013-06-04 00:03:00,
2013-06-03 19:04:00,73.4,49.6,31.01,South,185,0.0,0.0,43,0.00,,,0.00,VWS V13.01,2013-06-04 00:04:00,
2013-06-03 19:05:00,73.4,49.6,31.01,SSW,193,0.0,0.0,43,0.00,,,0.00,VWS V13.01,2013-06-04 00:05:00,
2013-06-03 19:07:00,73.0,49.2,31.01,SSE,168,3.1,3.1,43,0.00,,,0.00,VWS V13.01,2013-06-04 00:07:00,
2013-06-03 19:08:00,73.0,49.2,31.01,SSE,167,3.6,3.6,43,0.00,,,0.00,VWS V13.01,2013-06-04 00:08:00,
2013-06-03 19:09:00,73.2,49.4,31.01,South,170,4.9,4.9,43,0.00,,,0.00,VWS V13.01,2013-06-04 00:09:00,
2013-06-03 19:10:00,73.2,49.4,31.01,South,175,4.0,4.0,43,0.00,,,0.00,VWS V13.01,2013-06-04 00:10:00,
2013-06-03 19:12:00,72.5,48.8,31.01,South,175,2.2,2.2,43,0.00,,,0.00,VWS V13.01,2013-06-04 00:12:00,
2013-06-03 19:13:00,72.3,48.6,31.01,South,175,2.2,2.2,43,0.00,,,0.00,VWS V13.01,2013-06-04 00:13:00,
2013-06-03 19:15:00,72.0,48.3,31.01,SSE,162,3.1,3.1,43,0.00,,,0.00,VWS V13.01,2013-06-04 00:15:00,
2013-06-03 19:17:00,71.8,48.1,31.01,South,190,0.0,0.0,43,0.00,,,0.00,VWS V13.01,2013-06-04 00:17:00,
2013-06-03 19:18:00,72.0,48.3,31.01,South,190,0.0,0.0,43,0.00,,,0.00,VWS V13.01,2013-06-04 00:18:00,
2013-06-03 19:20:00,72.1,48.4,31.01,South,190,0.0,0.0,43,0.00,,,0.00,VWS V13.01,2013-06-04 00:20:00,
2013-06-03 19:22:00,72.3,48.6,31.01,SSE,152,0.0,0.0,43,0.00,,,0.00,VWS V13.01,2013-06-04 00:22:00,
2013-06-03 19:23:00,72.1,48.4,31.01,SSE,152,0.0,0.0,43,0.00,,,0.00,VWS V13.01,2013-06-04 00:23:00,
2013-06-03 19:25:00,72.3,48.6,31.01,SE,129,0.0,0.0,43,0.00,,,0.00,VWS V13.01,2013-06-04 00:25:00,
2013-06-03 19:27:00,72.3,48.6,31.01,SSW,196,0.0,0.0,43,0.00,,,0.00,VWS V13.01,2013-06-04 00:27:00,
2013-06-03 19:28:00,72.5,48.8,31.01,SSW,196,0.0,0.0,43,0.00,,,0.00,VWS V13.01,2013-06-04 00:28:00,
2013-06-03 19:30:00,72.1,48.4,31.01,South,185,3.1,3.1,43,0.00,,,0.00,VWS V13.01,2013-06-04 00:30:00,
2013-06-03 19:32:00,72.3,48.6,31.01,South,180,0.0,0.0,43,0.00,,,0.00,VWS V13.01,2013-06-04 00:32:00,
2013-06-03 19:33:00,72.0,48.3,31.01,South,170,2.7,2.7,43,0.00,,,0.00,VWS V13.01,2013-06-04 00:33:00,
2013-06-03 19:35:00,72.3,48.6,31.01,SSE,167,0.0,0.0,43,0.00,,,0.00,VWS V13.01,2013-06-04 00:35:00,
2013-06-03 19:38:00,71.6,47.9,31.01,SSW,192,2.7,2.7,43,0.00,,,0.00,VWS V13.01,2013-06-04 00:38:00,
2013-06-03 19:40:00,70.5,50.5,31.01,South,183,4.9,4.9,49,0.00,,,0.00,VWS V13.01,2013-06-04 00:40:00,
2013-06-03 19:43:00,69.8,49.8,31.01,South,185,3.6,3.6,49,0.00,,,0.00,VWS V13.01,2013-06-04 00:43:00,
2013-06-03 19:45:00,69.4,49.5,31.01,South,182,5.8,5.8,49,0.00,,,0.00,VWS V13.01,2013-06-04 00:45:00,
2013-06-03 19:48:00,69.3,49.3,31.01,South,178,4.0,4.0,49,0.00,,,0.00,VWS V13.01,2013-06-04 00:48:00,
2013-06-03 19:50:00,68.9,49.0,31.01,South,177,6.3,6.3,49,0.00,,,0.00,VWS V13.01,2013-06-04 00:50:00,
2013-06-03 19:53:00,68.7,48.8,31.01,South,183,5.4,5.4,49,0.00,,,0.00,VWS V13.01,2013-06-04 00:53:00,
2013-06-03 19:55:00,68.5,48.6,31.01,South,184,3.1,3.1,49,0.00,,,0.00,VWS V13.01,2013-06-04 00:55:00,
2013-06-03 19:56:00,68.4,48.5,31.01,South,184,3.6,3.6,49,0.00,,,0.00,VWS V13.01,2013-06-04 00:56:00,
2013-06-03 19:58:00,68.2,48.3,31.01,South,177,3.1,3.1,49,0.00,,,0.00,VWS V13.01,2013-06-04 00:58:00,
2013-06-03 20:00:00,68.0,48.2,31.01,South,177,0.0,0.0,49,0.00,,,0.00,VWS V13.01,2013-06-04 01:00:00,
2013-06-03 20:01:00,68.0,48.2,31.01,South,177,0.0,0.0,49,0.00,,,0.00,VWS V13.01,2013-06-04 01:01:00,
2013-06-03 20:03:00,67.6,47.8,31.01,South,187,0.0,0.0,49,0.00,,,0.00,VWS V13.01,2013-06-04 01:03:00,
2013-06-03 20:05:00,67.6,47.8,31.01,South,187,0.0,0.0,49,0.00,,,0.00,VWS V13.01,2013-06-04 01:05:00,
2013-06-03 20:06:00,67.6,47.8,31.01,South,188,0.0,0.0,49,0.00,,,0.00,VWS V13.01,2013-06-04 01:06:00,
2013-06-03 20:08:00,67.5,47.7,31.01,South,190,0.0,0.0,49,0.00,,,0.00,VWS V13.01,2013-06-04 01:08:00,
2013-06-03 20:09:00,67.5,47.7,31.01,South,190,0.0,0.0,49,0.00,,,0.00,VWS V13.01,2013-06-04 01:09:00,
2013-06-03 20:10:00,67.3,47.5,31.01,South,182,2.2,2.2,49,0.00,,,0.00,VWS V13.01,2013-06-04 01:10:00,
2013-06-03 20:11:00,67.3,47.5,31.01,South,181,0.0,0.0,49,0.00,,,0.00,VWS V13.01,2013-06-04 01:11:00,
2013-06-03 20:13:00,67.1,47.3,31.01,SSE,166,0.0,0.0,49,0.00,,,0.00,VWS V13.01,2013-06-04 01:13:00,
2013-06-03 20:14:00,67.1,47.3,31.01,South,190,0.0,0.0,49,0.00,,,0.00,VWS V13.01,2013-06-04 01:14:00,
2013-06-03 20:15:00,66.9,47.2,31.01,South,175,3.1,3.1,49,0.00,,,0.00,VWS V13.01,2013-06-04 01:15:00,
2013-06-03 20:17:00,66.9,47.2,31.01,South,179,0.0,0.0,49,0.00,,,0.00,VWS V13.01,2013-06-04 01:17:00,
2013-06-03 20:18:00,66.7,47.0,31.01,South,181,2.2,2.2,49,0.00,,,0.00,VWS V13.01,2013-06-04 01:18:00,
2013-06-03 20:19:00,66.7,47.0,31.01,South,181,2.2,2.2,49,0.00,,,0.00,VWS V13.01,2013-06-04 01:19:00,
2013-06-03 20:20:00,66.6,46.8,31.01,South,180,0.0,0.0,49,0.00,,,0.00,VWS V13.01,2013-06-04 01:20:00,
2013-06-03 20:22:00,66.6,46.8,31.01,South,182,0.0,0.0,49,0.00,,,0.00,VWS V13.01,2013-06-04 01:22:00,
2013-06-03 20:23:00,66.6,46.8,31.01,South,183,0.0,0.0,49,0.00,,,0.00,VWS V13.01,2013-06-04 01:23:00,
2013-06-03 20:24:00,66.4,46.7,31.01,South,183,0.0,0.0,49,0.00,,,0.00,VWS V13.01,2013-06-04 01:24:00,
2013-06-03 20:25:00,66.2,46.5,31.01,South,183,0.0,0.0,49,0.00,,,0.00,VWS V13.01,2013-06-04 01:25:00,
2013-06-03 20:27:00,66.0,49.4,31.01,South,183,0.0,0.0,55,0.00,,,0.00,VWS V13.01,2013-06-04 01:27:00,
2013-06-03 20:28:00,66.0,49.4,31.01,South,183,0.0,0.0,55,0.00,,,0.00,VWS V13.01,2013-06-04 01:28:00,
2013-06-03 20:29:00,65.8,49.2,31.01,South,183,0.0,0.0,55,0.00,,,0.00,VWS V13.01,2013-06-04 01:29:00,
2013-06-03 20:30:00,65.7,49.1,31.01,South,183,0.0,0.0,55,0.00,,,0.00,VWS V13.01,2013-06-04 01:30:00,
2013-06-03 20:32:00,65.7,49.1,31.01,South,183,0.0,0.0,55,0.00,,,0.00,VWS V13.01,2013-06-04 01:32:00,
2013-06-03 20:33:00,65.5,48.9,31.01,South,183,0.0,0.0,55,0.00,,,0.00,VWS V13.01,2013-06-04 01:33:00,
2013-06-03 20:34:00,65.1,48.6,31.01,East,86,0.0,0.0,55,0.00,,,0.00,VWS V13.01,2013-06-04 01:34:00,
2013-06-03 20:35:00,65.1,48.6,31.01,East,86,0.0,0.0,55,0.00,,,0.00,VWS V13.01,2013-06-04 01:35:00,
2013-06-03 20:37:00,64.8,48.2,31.01,East,86,0.0,0.0,55,0.00,,,0.00,VWS V13.01,2013-06-04 01:37:00,
2013-06-03 20:38:00,64.6,48.1,31.01,East,86,0.0,0.0,55,0.00,,,0.00,VWS V13.01,2013-06-04 01:38:00,
2013-06-03 20:39:00,64.6,48.1,31.01,East,86,0.0,0.0,55,0.00,,,0.00,VWS V13.01,2013-06-04 01:39:00,
2013-06-03 20:40:00,64.6,48.1,31.01,East,86,0.0,0.0,55,0.00,,,0.00,VWS V13.01,2013-06-04 01:40:00,
2013-06-03 20:42:00,64.4,47.9,31.01,East,86,0.0,0.0,55,0.00,,,0.00,VWS V13.01,2013-06-04 01:42:00,
2013-06-03 20:43:00,64.2,47.7,31.01,East,86,0.0,0.0,55,0.00,,,0.00,VWS V13.01,2013-06-04 01:43:00,
2013-06-03 20:44:00,64.2,47.7,31.01,East,86,0.0,0.0,55,0.00,,,0.00,VWS V13.01,2013-06-04 01:44:00,
2013-06-03 20:45:00,64.0,47.6,31.01,East,86,0.0,0.0,55,0.00,,,0.00,VWS V13.01,2013-06-04 01:45:00,
2013-06-03 20:47:00,63.9,47.4,31.01,East,86,0.0,0.0,55,0.00,,,0.00,VWS V13.01,2013-06-04 01:47:00,
2013-06-03 20:48:00,63.9,47.4,31.01,East,86,0.0,0.0,55,0.00,,,0.00,VWS V13.01,2013-06-04 01:48:00,
2013-06-03 20:49:00,63.9,47.4,31.01,East,86,0.0,0.0,55,0.00,,,0.00,VWS V13.01,2013-06-04 01:49:00,
2013-06-03 20:50:00,63.7,47.2,31.01,East,86,0.0,0.0,55,0.00,,,0.00,VWS V13.01,2013-06-04 01:50:00,
2013-06-03 20:52:00,63.7,47.2,31.01,East,86,0.0,0.0,55,0.00,,,0.00,VWS V13.01,2013-06-04 01:52:00,
2013-06-03 20:53:00,63.5,47.1,31.01,East,86,0.0,0.0,55,0.00,,,0.00,VWS V13.01,2013-06-04 01:53:00,
2013-06-03 20:54:00,63.3,54.5,31.01,East,86,0.0,0.0,73,0.00,,,0.00,VWS V13.01,2013-06-04 01:54:00,
2013-06-03 20:56:00,63.1,46.7,31.01,East,86,0.0,0.0,55,0.00,,,0.00,VWS V13.01,2013-06-04 01:56:00,
2013-06-03 20:57:00,63.0,46.6,31.01,East,86,0.0,0.0,55,0.00,,,0.00,VWS V13.01,2013-06-04 01:57:00,
2013-06-03 20:58:00,63.0,54.2,31.01,East,86,0.0,0.0,73,0.00,,,0.00,VWS V13.01,2013-06-04 01:58:00,
2013-06-03 20:59:00,63.0,54.2,31.01,East,86,0.0,0.0,73,0.00,,,0.00,VWS V13.01,2013-06-04 01:59:00,
2013-06-03 21:01:00,63.0,54.2,31.01,East,86,0.0,0.0,73,0.00,,,0.00,VWS V13.01,2013-06-04 02:01:00,
2013-06-03 21:02:00,63.1,54.3,31.01,East,86,0.0,0.0,73,0.00,,,0.00,VWS V13.01,2013-06-04 02:02:00,
2013-06-03 21:03:00,63.0,54.2,31.01,East,86,0.0,0.0,73,0.00,,,0.00,VWS V13.01,2013-06-04 02:03:00,
2013-06-03 21:04:00,63.0,54.2,31.01,East,86,0.0,0.0,73,0.00,,,0.00,VWS V13.01,2013-06-04 02:04:00,
2013-06-03 21:05:00,63.0,54.2,31.01,East,86,0.0,0.0,73,0.00,,,0.00,VWS V13.01,2013-06-04 02:05:00,
2013-06-03 21:06:00,63.0,54.2,31.01,East,86,0.0,0.0,73,0.00,,,0.00,VWS V13.01,2013-06-04 02:06:00,
2013-06-03 21:07:00,62.8,54.0,31.01,East,86,0.0,0.0,73,0.00,,,0.00,VWS V13.01,2013-06-04 02:07:00,
2013-06-03 21:09:00,62.8,54.0,31.01,East,86,0.0,0.0,73,0.00,,,0.00,VWS V13.01,2013-06-04 02:09:00,
2013-06-03 21:10:00,62.8,54.0,31.01,East,86,0.0,0.0,73,0.00,,,0.00,VWS V13.01,2013-06-04 02:10:00,
2013-06-03 21:11:00,62.8,54.0,31.01,East,86,0.0,0.0,73,0.00,,,0.00,VWS V13.01,2013-06-04 02:11:00,
2013-06-03 21:12:00,62.6,53.8,31.01,East,86,0.0,0.0,73,0.00,,,0.00,VWS V13.01,2013-06-04 02:12:00,
2013-06-03 21:14:00,62.6,53.8,31.01,East,86,0.0,0.0,73,0.00,,,0.00,VWS V13.01,2013-06-04 02:14:00,
2013-06-03 21:15:00,62.6,53.8,31.01,East,86,0.0,0.0,73,0.00,,,0.00,VWS V13.01,2013-06-04 02:15:00,
2013-06-03 21:16:00,62.6,53.8,31.01,East,86,0.0,0.0,73,0.00,,,0.00,VWS V13.01,2013-06-04 02:16:00,
2013-06-03 21:17:00,62.6,53.8,31.01,East,86,0.0,0.0,73,0.00,,,0.00,VWS V13.01,2013-06-04 02:17:00,
2013-06-03 21:19:00,62.4,53.7,31.01,East,86,0.0,0.0,73,0.00,,,0.00,VWS V13.01,2013-06-04 02:19:00,
2013-06-03 21:20:00,62.4,53.7,31.01,East,86,0.0,0.0,73,0.00,,,0.00,VWS V13.01,2013-06-04 02:20:00,
2013-06-03 21:22:00,62.4,53.7,31.01,East,86,0.0,0.0,73,0.00,,,0.00,VWS V13.01,2013-06-04 02:22:00,
2013-06-03 21:24:00,62.2,53.5,31.01,East,86,0.0,0.0,73,0.00,,,0.00,VWS V13.01,2013-06-04 02:24:00,
2013-06-03 21:25:00,62.2,53.5,31.01,East,86,0.0,0.0,73,0.00,,,0.00,VWS V13.01,2013-06-04 02:25:00,
2013-06-03 21:27:00,62.2,53.5,31.01,East,86,0.0,0.0,73,0.00,,,0.00,VWS V13.01,2013-06-04 02:27:00,
2013-06-03 21:29:00,62.2,53.5,31.01,East,86,0.0,0.0,73,0.00,,,0.00,VWS V13.01,2013-06-04 02:29:00,
2013-06-03 21:30:00,62.2,53.5,31.01,East,86,0.0,0.0,73,0.00,,,0.00,VWS V13.01,2013-06-04 02:30:00,
2013-06-03 21:32:00,62.1,53.3,31.01,East,86,0.0,0.0,73,0.00,,,0.00,VWS V13.01,2013-06-04 02:32:00,
2013-06-03 21:33:00,62.1,53.3,31.01,East,86,0.0,0.0,73,0.00,,,0.00,VWS V13.01,2013-06-04 02:33:00,
2013-06-03 21:34:00,61.9,53.1,31.01,East,86,0.0,0.0,73,0.00,,,0.00,VWS V13.01,2013-06-04 02:34:00,
2013-06-03 21:35:00,61.9,53.1,31.01,East,86,0.0,0.0,73,0.00,,,0.00,VWS V13.01,2013-06-04 02:35:00,
2013-06-03 21:37:00,61.7,53.0,31.01,East,86,0.0,0.0,73,0.00,,,0.00,VWS V13.01,2013-06-04 02:37:00,
2013-06-03 21:38:00,61.5,52.8,31.01,East,86,0.0,0.0,73,0.00,,,0.00,VWS V13.01,2013-06-04 02:38:00,
2013-06-03 21:39:00,61.5,52.8,31.01,East,86,0.0,0.0,73,0.00,,,0.00,VWS V13.01,2013-06-04 02:39:00,
2013-06-03 21:40:00,61.3,52.6,31.01,East,86,0.0,0.0,73,0.00,,,0.00,VWS V13.01,2013-06-04 02:40:00,
2013-06-03 21:42:00,61.3,52.6,31.01,East,86,0.0,0.0,73,0.00,,,0.00,VWS V13.01,2013-06-04 02:42:00,
2013-06-03 21:43:00,61.3,52.6,31.01,East,86,0.0,0.0,73,0.00,,,0.00,VWS V13.01,2013-06-04 02:43:00,
2013-06-03 21:44:00,61.3,52.6,31.01,East,86,0.0,0.0,73,0.00,,,0.00,VWS V13.01,2013-06-04 02:44:00,
2013-06-03 21:45:00,61.2,52.5,31.01,East,86,0.0,0.0,73,0.00,,,0.00,VWS V13.01,2013-06-04 02:45:00,
2013-06-03 21:47:00,61.2,52.5,31.01,East,86,0.0,0.0,73,0.00,,,0.00,VWS V13.01,2013-06-04 02:47:00,
2013-06-03 21:48:00,61.2,52.5,31.01,East,86,0.0,0.0,73,0.00,,,0.00,VWS V13.01,2013-06-04 02:48:00,
2013-06-03 21:49:00,61.2,52.5,31.01,East,86,0.0,0.0,73,0.00,,,0.00,VWS V13.01,2013-06-04 02:49:00,
2013-06-03 21:50:00,61.2,52.5,31.01,East,86,0.0,0.0,73,0.00,,,0.00,VWS V13.01,2013-06-04 02:50:00,
2013-06-03 21:52:00,61.3,52.6,31.01,East,86,0.0,0.0,73,0.00,,,0.00,VWS V13.01,2013-06-04 02:52:00,
2013-06-03 21:53:00,61.3,58.7,31.01,East,86,0.0,0.0,91,0.00,,,0.00,VWS V13.01,2013-06-04 02:53:00,
2013-06-03 21:55:00,61.3,58.7,31.01,East,86,0.0,0.0,91,0.00,,,0.00,VWS V13.01,2013-06-04 02:55:00,
2013-06-03 21:57:00,61.3,58.7,31.01,East,86,0.0,0.0,91,0.00,,,0.00,VWS V13.01,2013-06-04 02:57:00,
2013-06-03 21:58:00,61.5,58.9,31.01,East,86,0.0,0.0,91,0.00,,,0.00,VWS V13.01,2013-06-04 02:58:00,
2013-06-03 22:00:00,61.5,58.9,31.01,East,80,0.0,0.0,91,0.00,,,1.42,VWS V13.01,2013-06-04 03:00:00,
2013-06-03 22:02:00,62.1,59.4,31.01,ENE,72,0.0,0.0,91,0.00,,,0.00,VWS V13.01,2013-06-04 03:02:00,
2013-06-03 22:03:00,62.4,59.8,31.01,ENE,76,3.1,3.1,91,0.00,,,0.00,VWS V13.01,2013-06-04 03:03:00,
2013-06-03 22:05:00,62.4,59.8,31.01,East,83,3.1,3.1,91,0.00,,,0.00,VWS V13.01,2013-06-04 03:05:00,
2013-06-03 22:07:00,62.6,53.8,31.01,ENE,78,0.0,0.0,73,0.00,,,0.00,VWS V13.01,2013-06-04 03:07:00,
2013-06-03 22:08:00,62.6,53.8,31.01,East,80,3.1,3.1,73,0.00,,,0.00,VWS V13.01,2013-06-04 03:08:00,
2013-06-03 22:10:00,62.6,53.8,31.01,ENE,73,0.0,0.0,73,0.00,,,0.00,VWS V13.01,2013-06-04 03:10:00,
2013-06-03 22:12:00,62.2,53.5,31.01,ENE,72,0.0,0.0,73,0.00,,,0.00,VWS V13.01,2013-06-04 03:12:00,
2013-06-03 22:13:00,62.2,53.5,31.01,ENE,72,0.0,0.0,73,0.00,,,0.00,VWS V13.01,2013-06-04 03:13:00,
2013-06-03 22:15:00,61.9,53.1,31.01,ENE,72,0.0,0.0,73,0.00,,,0.00,VWS V13.01,2013-06-04 03:15:00,
2013-06-03 22:17:00,61.9,59.2,31.01,ENE,72,0.0,0.0,91,0.00,,,0.00,VWS V13.01,2013-06-04 03:17:00,
2013-06-03 22:18:00,61.9,59.2,31.01,ENE,74,0.0,0.0,91,0.00,,,0.00,VWS V13.01,2013-06-04 03:18:00,
2013-06-03 22:20:00,61.9,59.2,31.01,ENE,76,0.0,0.0,91,0.00,,,0.00,VWS V13.01,2013-06-04 03:20:00,
2013-06-03 22:22:00,61.7,59.0,31.01,ENE,75,0.0,0.0,91,0.00,,,0.00,VWS V13.01,2013-06-04 03:22:00,
2013-06-03 22:23:00,61.7,59.0,31.01,NE,56,0.0,0.0,91,0.00,,,0.00,VWS V13.01,2013-06-04 03:23:00,
2013-06-03 22:25:00,61.7,61.7,31.01,ENE,70,0.0,0.0,100,0.00,,,0.00,VWS V13.01,2013-06-04 03:25:00,
2013-06-03 22:27:00,61.7,61.7,31.01,ENE,78,0.0,0.0,100,0.00,,,0.00,VWS V13.01,2013-06-04 03:27:00,
2013-06-03 22:28:00,61.5,61.5,31.01,ENE,76,0.0,0.0,100,0.00,,,0.00,VWS V13.01,2013-06-04 03:28:00,
2013-06-03 22:30:00,61.3,61.3,31.01,ENE,76,0.0,0.0,100,0.00,,,0.00,VWS V13.01,2013-06-04 03:30:00,
2013-06-03 22:32:00,61.3,61.3,31.01,ENE,75,0.0,0.0,100,0.00,,,0.00,VWS V13.01,2013-06-04 03:32:00,
2013-06-03 22:33:00,61.3,61.3,31.01,ENE,75,0.0,0.0,100,0.00,,,0.00,VWS V13.01,2013-06-04 03:33:00,
2013-06-03 22:35:00,61.3,61.3,31.01,ENE,75,0.0,0.0,100,0.00,,,0.00,VWS V13.01,2013-06-04 03:35:00,
2013-06-03 22:36:00,61.3,61.3,31.01,ENE,75,0.0,0.0,100,0.00,,,0.00,VWS V13.01,2013-06-04 03:36:00,
2013-06-03 22:37:00,61.2,61.2,31.01,East,83,0.0,0.0,100,0.00,,,0.00,VWS V13.01,2013-06-04 03:37:00,
2013-06-03 22:38:00,61.2,61.2,31.01,East,83,0.0,0.0,100,0.00,,,0.00,VWS V13.01,2013-06-04 03:38:00,
2013-06-03 22:40:00,61.2,61.2,31.01,ENE,73,0.0,0.0,100,0.00,,,0.00,VWS V13.01,2013-06-04 03:40:00,
2013-06-03 22:41:00,61.2,61.2,31.01,ENE,73,0.0,0.0,100,0.00,,,0.00,VWS V13.01,2013-06-04 03:41:00,
2013-06-03 22:42:00,61.0,61.0,31.01,ENE,73,0.0,0.0,100,0.00,,,0.00,VWS V13.01,2013-06-04 03:42:00,
2013-06-03 22:43:00,61.0,61.0,31.01,ENE,74,0.0,0.0,100,0.00,,,0.00,VWS V13.01,2013-06-04 03:43:00,
2013-06-03 22:45:00,61.0,61.0,31.01,ENE,74,0.0,0.0,100,0.00,,,0.00,VWS V13.01,2013-06-04 03:45:00,
2013-06-03 22:46:00,61.0,61.0,31.01,ENE,74,0.0,0.0,100,0.00,,,0.00,VWS V13.01,2013-06-04 03:46:00,
2013-06-03 22:47:00,61.0,61.0,31.01,ENE,74,0.0,0.0,100,0.00,,,0.00,VWS V13.01,2013-06-04 03:47:00,
2013-06-03 22:49:00,60.8,60.8,31.01,ENE,74,0.0,0.0,100,0.00,,,0.00,VWS V13.01,2013-06-04 03:49:00,
2013-06-03 22:50:00,60.6,60.6,31.01,ENE,74,0.0,0.0,100,0.00,,,0.00,VWS V13.01,2013-06-04 03:50:00,
2013-06-03 22:51:00,60.6,60.6,31.01,ENE,74,0.0,0.0,100,0.00,,,0.00,VWS V13.01,2013-06-04 03:51:00,
2013-06-03 22:52:00,60.6,60.6,31.01,ENE,74,0.0,0.0,100,0.00,,,0.00,VWS V13.01,2013-06-04 03:52:00,
2013-06-03 22:54:00,60.4,60.4,31.01,ENE,74,0.0,0.0,100,0.00,,,0.00,VWS V13.01,2013-06-04 03:54:00,
2013-06-03 22:55:00,60.3,60.3,31.01,ENE,74,0.0,0.0,100,0.00,,,0.00,VWS V13.01,2013-06-04 03:55:00,
2013-06-03 22:56:00,60.3,60.3,31.01,ENE,74,0.0,0.0,100,0.00,,,0.00,VWS V13.01,2013-06-04 03:56:00,
2013-06-03 22:57:00,60.1,60.1,31.01,ENE,74,0.0,0.0,100,0.00,,,0.00,VWS V13.01,2013-06-04 03:57:00,
2013-06-03 22:59:00,59.7,59.7,31.01,ENE,74,0.0,0.0,100,0.00,,,0.00,VWS V13.01,2013-06-04 03:59:00,
2013-06-03 23:01:00,59.5,59.5,31.01,ENE,74,0.0,0.0,100,0.00,,,0.00,VWS V13.01,2013-06-04 04:01:00,
2013-06-03 23:02:00,59.4,59.4,31.01,ENE,74,0.0,0.0,100,0.00,,,0.00,VWS V13.01,2013-06-04 04:02:00,
2013-06-03 23:06:00,59.7,59.7,31.01,ENE,74,0.0,0.0,100,0.00,,,0.00,VWS V13.01,2013-06-04 04:06:00,
2013-06-03 23:07:00,59.7,59.7,31.01,ENE,74,0.0,0.0,100,0.00,,,0.00,VWS V13.01,2013-06-04 04:07:00,
2013-06-03 23:11:00,59.7,59.7,31.01,ENE,74,0.0,0.0,100,0.00,,,0.00,VWS V13.01,2013-06-04 04:11:00,
2013-06-03 23:12:00,59.7,59.7,31.01,ENE,74,0.0,0.0,100,0.00,,,0.00,VWS V13.01,2013-06-04 04:12:00,
2013-06-03 23:16:00,59.9,59.9,31.01,ENE,74,0.0,0.0,100,0.00,,,0.00,VWS V13.01,2013-06-04 04:16:00,
2013-06-03 23:17:00,59.9,59.9,31.01,ENE,74,0.0,0.0,100,0.00,,,0.00,VWS V13.01,2013-06-04 04:17:00,
2013-06-03 23:21:00,60.1,60.1,31.01,ENE,74,0.0,0.0,100,0.00,,,0.00,VWS V13.01,2013-06-04 04:21:00,
2013-06-03 23:22:00,60.1,60.1,31.01,ENE,74,0.0,0.0,100,0.00,,,0.00,VWS V13.01,2013-06-04 04:22:00,
2013-06-03 23:27:00,60.1,60.1,31.01,ENE,72,0.0,0.0,100,0.00,,,0.00,VWS V13.01,2013-06-04 04:27:00,
2013-06-03 23:32:00,59.9,59.9,31.01,ENE,73,0.0,0.0,100,0.00,,,0.00,VWS V13.01,2013-06-04 04:32:00,
2013-06-03 23:37:00,59.5,59.5,31.01,ENE,73,0.0,0.0,100,0.00,,,0.00,VWS V13.01,2013-06-04 04:37:00,
2013-06-03 23:42:00,59.4,59.4,31.01,ENE,73,0.0,0.0,100,0.00,,,0.00,VWS V13.01,2013-06-04 04:42:00,
2013-06-03 23:43:00,59.4,59.4,31.01,ENE,73,0.0,0.0,100,0.00,,,0.00,VWS V13.01,2013-06-04 04:43:00,
2013-06-03 23:47:00,59.4,59.4,31.01,South,188,0.0,0.0,100,0.00,,,0.00,VWS V13.01,2013-06-04 04:47:00,
2013-06-03 23:48:00,59.4,59.4,31.01,South,188,0.0,0.0,100,0.00,,,0.00,VWS V13.01,2013-06-04 04:48:00,
2013-06-03 23:52:00,59.4,59.4,31.01,South,188,0.0,0.0,100,0.00,,,0.00,VWS V13.01,2013-06-04 04:52:00,
2013-06-03 23:53:00,59.4,59.4,31.01,South,188,0.0,0.0,100,0.00,,,0.00,VWS V13.01,2013-06-04 04:53:00,
2013-06-03 23:57:00,59.4,59.4,31.01,ESE,117,0.0,0.0,100,0.00,,,0.00,VWS V13.01,2013-06-04 04:57:00,
2013-06-03 23:58:00,59.4,59.4,31.01,SSE,163,0.0,0.0,100,0.00,,,0.00,VWS V13.01,2013-06-04 04:58:00,